<?xml version='1.0' encoding='UTF-8'?><gpx version="1.1" creator="JPX - https://github.com/jenetics/jpx" xmlns="http://www.topografix.com/GPX/1/1"><trk><trkseg><trkpt lat="45.65144393385521" lon="13.88250544948508"><ele>415.0</ele><time>2026-04-10T14:43:26Z</time></trkpt><trkpt lat="45.65140195177965" lon="13.882574024436716"><ele>415.0</ele><time>2026-04-10T14:43:31Z</time></trkpt><trkpt lat="45.65136519427662" lon="13.882661814568824"><ele>415.0</ele><time>2026-04-10T14:43:37Z</time></trkpt><trkpt lat="45.651323931253934" lon="13.882732881835468"><ele>415.0</ele><time>2026-04-10T14:43:43Z</time></trkpt><trkpt lat="45.65127712180678" lon="13.882793748517932"><ele>415.0</ele><time>2026-04-10T14:43:48Z</time></trkpt><trkpt lat="45.65122080759732" lon="13.88285470105749"><ele>415.0</ele><time>2026-04-10T14:43:53Z</time></trkpt><trkpt lat="45.65117179293007" lon="13.88292923276173"><ele>415.0</ele><time>2026-04-10T14:43:59Z</time></trkpt><trkpt lat="45.65112243127856" lon="13.882991261384783"><ele>415.7142857142857</ele><time>2026-04-10T14:44:04Z</time></trkpt><trkpt lat="45.651076189590015" lon="13.883052376561567"><ele>416.42857142857144</ele><time>2026-04-10T14:44:09Z</time></trkpt><trkpt lat="45.651041487096755" lon="13.883139993098746"><ele>417.1428571428571</ele><time>2026-04-10T14:44:15Z</time></trkpt><trkpt lat="45.65100366290922" lon="13.883218719196627"><ele>417.8571428571429</ele><time>2026-04-10T14:44:21Z</time></trkpt><trkpt lat="45.650961684769584" lon="13.883292420805173"><ele>418.57142857142856</ele><time>2026-04-10T14:44:27Z</time></trkpt><trkpt lat="45.65090582376566" lon="13.88336993783659"><ele>419.2857142857143</ele><time>2026-04-10T14:44:35.001Z</time></trkpt><trkpt lat="45.6508538076523" lon="13.883434191269805"><ele>420.0</ele><time>2026-04-10T14:44:41.001Z</time></trkpt><trkpt lat="45.65077676591148" lon="13.883430385749145"><ele>420.7142857142857</ele><time>2026-04-10T14:44:46Z</time></trkpt><trkpt lat="45.65071555261585" lon="13.883463336650934"><ele>421.42857142857144</ele><time>2026-04-10T14:44:51Z</time></trkpt><trkpt lat="45.65065200244849" lon="13.88352305479435"><ele>422.1428571428571</ele><time>2026-04-10T14:44:56Z</time></trkpt><trkpt lat="45.6506036906995" lon="13.883580832737223"><ele>422.8571428571429</ele><time>2026-04-10T14:45:00Z</time></trkpt><trkpt lat="45.650577880102766" lon="13.883679938795733"><ele>423.57142857142856</ele><time>2026-04-10T14:45:05Z</time></trkpt><trkpt lat="45.650553048202184" lon="13.883782546182106"><ele>424.2857142857143</ele><time>2026-04-10T14:45:12Z</time></trkpt><trkpt lat="45.6505159420158" lon="13.883874342697025"><ele>425.0</ele><time>2026-04-10T14:45:19Z</time></trkpt><trkpt lat="45.65046166744467" lon="13.8839388476126"><ele>425.0</ele><time>2026-04-10T14:45:25Z</time></trkpt><trkpt lat="45.650406739806456" lon="13.884011449792865"><ele>425.0</ele><time>2026-04-10T14:45:31Z</time></trkpt><trkpt lat="45.65035849546427" lon="13.88406952027128"><ele>425.0</ele><time>2026-04-10T14:45:36Z</time></trkpt><trkpt lat="45.65030148736869" lon="13.884136696550158"><ele>425.0</ele><time>2026-04-10T14:45:40.999Z</time></trkpt><trkpt lat="45.650240515195186" lon="13.8841778802641"><ele>425.0</ele><time>2026-04-10T14:45:45.999Z</time></trkpt><trkpt lat="45.65017880990059" lon="13.884213556745404"><ele>425.0</ele><time>2026-04-10T14:45:50.999Z</time></trkpt><trkpt lat="45.65010740515588" lon="13.884245939883394"><ele>425.0</ele><time>2026-04-10T14:45:56.999Z</time></trkpt><trkpt lat="45.65003721380059" lon="13.884287983920482"><ele>425.7142857142857</ele><time>2026-04-10T14:46:02.999Z</time></trkpt><trkpt lat="45.64997906086712" lon="13.884333023583771"><ele>426.42857142857144</ele><time>2026-04-10T14:46:08.999Z</time></trkpt><trkpt lat="45.649919403524386" lon="13.884377854585466"><ele>427.1428571428571</ele><time>2026-04-10T14:46:15.999Z</time></trkpt><trkpt lat="45.64986372192321" lon="13.884436897925118"><ele>427.8571428571429</ele><time>2026-04-10T14:46:22.999Z</time></trkpt><trkpt lat="45.64982487451027" lon="13.884513188952555"><ele>428.5714285714286</ele><time>2026-04-10T14:46:28.999Z</time></trkpt><trkpt lat="45.64977853836684" lon="13.884574531036838"><ele>429.2857142857143</ele><time>2026-04-10T14:46:34.999Z</time></trkpt><trkpt lat="45.64973800806807" lon="13.884654826364372"><ele>430.0</ele><time>2026-04-10T14:46:42Z</time></trkpt><trkpt lat="45.6497048752883" lon="13.884734576286665"><ele>430.0</ele><time>2026-04-10T14:46:49Z</time></trkpt><trkpt lat="45.64965678923427" lon="13.884812638163808"><ele>430.0</ele><time>2026-04-10T14:46:56Z</time></trkpt><trkpt lat="45.64961333663941" lon="13.884897438545094"><ele>430.0</ele><time>2026-04-10T14:47:02.999Z</time></trkpt><trkpt lat="45.64957493695113" lon="13.884976191274507"><ele>430.0</ele><time>2026-04-10T14:47:10.999Z</time></trkpt><trkpt lat="45.64952479786874" lon="13.885041944534281"><ele>430.0</ele><time>2026-04-10T14:47:32.999Z</time></trkpt><trkpt lat="45.649486109893864" lon="13.885120478284144"><ele>430.0</ele><time>2026-04-10T14:47:41.999Z</time></trkpt><trkpt lat="45.649453601361685" lon="13.885208257800615"><ele>430.0</ele><time>2026-04-10T14:47:51.999Z</time></trkpt><trkpt lat="45.649431275818245" lon="13.885292799075838"><ele>432.4285714285714</ele><time>2026-04-10T14:48:00.999Z</time></trkpt><trkpt lat="45.64940387207591" lon="13.885394883446843"><ele>434.8571428571429</ele><time>2026-04-10T14:48:06.999Z</time></trkpt><trkpt lat="45.64934769475035" lon="13.885454658793458"><ele>437.2857142857143</ele><time>2026-04-10T14:48:13.999Z</time></trkpt><trkpt lat="45.64928944917912" lon="13.885511449376484"><ele>439.71428571428567</ele><time>2026-04-10T14:48:20.999Z</time></trkpt><trkpt lat="45.64923313720298" lon="13.885570694442508"><ele>442.1428571428571</ele><time>2026-04-10T14:48:26.999Z</time></trkpt><trkpt lat="45.64917668070544" lon="13.885614597901677"><ele>444.57142857142856</ele><time>2026-04-10T14:48:32.999Z</time></trkpt><trkpt lat="45.649115746827654" lon="13.88565622792367"><ele>447.0</ele><time>2026-04-10T14:48:37.999Z</time></trkpt><trkpt lat="45.649062382319975" lon="13.885721795153206"><ele>446.99999999999994</ele><time>2026-04-10T14:48:44Z</time></trkpt><trkpt lat="45.649021850883805" lon="13.885799096194754"><ele>447.0</ele><time>2026-04-10T14:48:50Z</time></trkpt><trkpt lat="45.649003991219736" lon="13.88588889448023"><ele>447.0</ele><time>2026-04-10T14:48:57Z</time></trkpt><trkpt lat="45.64896791048622" lon="13.88596613236095"><ele>447.0</ele><time>2026-04-10T14:49:06Z</time></trkpt><trkpt lat="45.648937624519384" lon="13.886049912225358"><ele>447.0</ele><time>2026-04-10T14:49:14Z</time></trkpt><trkpt lat="45.64890994252618" lon="13.886137503837622"><ele>446.99999999999994</ele><time>2026-04-10T14:49:20.999Z</time></trkpt><trkpt lat="45.64886570909759" lon="13.886219307657774"><ele>447.0</ele><time>2026-04-10T14:49:26.999Z</time></trkpt><trkpt lat="45.64882243518043" lon="13.886299924068311"><ele>447.57142857142856</ele><time>2026-04-10T14:49:33.999Z</time></trkpt><trkpt lat="45.648782429598654" lon="13.88637651263377"><ele>448.1428571428571</ele><time>2026-04-10T14:49:40.999Z</time></trkpt><trkpt lat="45.6487319048908" lon="13.886448201630614"><ele>448.71428571428567</ele><time>2026-04-10T14:49:47.999Z</time></trkpt><trkpt lat="45.64868945578461" lon="13.886521985903682"><ele>449.2857142857143</ele><time>2026-04-10T14:49:54.999Z</time></trkpt><trkpt lat="45.648645925693124" lon="13.886607852800102"><ele>449.8571428571429</ele><time>2026-04-10T14:50:01.999Z</time></trkpt><trkpt lat="45.64858856260223" lon="13.886675278486615"><ele>450.4285714285714</ele><time>2026-04-10T14:50:08.999Z</time></trkpt><trkpt lat="45.64852236533126" lon="13.886726866587237"><ele>451.0</ele><time>2026-04-10T14:50:15.999Z</time></trkpt><trkpt lat="45.64847027755024" lon="13.88678603195778"><ele>453.57142857142856</ele><time>2026-04-10T14:50:22.999Z</time></trkpt><trkpt lat="45.648407357775014" lon="13.886805242506627"><ele>456.14285714285717</ele><time>2026-04-10T14:50:27.999Z</time></trkpt><trkpt lat="45.64834767787096" lon="13.886845895581937"><ele>458.7142857142857</ele><time>2026-04-10T14:50:32.999Z</time></trkpt><trkpt lat="45.64829769201194" lon="13.886921210766914"><ele>461.2857142857143</ele><time>2026-04-10T14:50:38.999Z</time></trkpt><trkpt lat="45.64828349407593" lon="13.887009656378615"><ele>463.8571428571429</ele><time>2026-04-10T14:50:44.999Z</time></trkpt><trkpt lat="45.64828182296464" lon="13.887111626913743"><ele>466.42857142857144</ele><time>2026-04-10T14:50:52Z</time></trkpt><trkpt lat="45.648282759632025" lon="13.887208299835352"><ele>469.0</ele><time>2026-04-10T14:50:58Z</time></trkpt><trkpt lat="45.64830708538541" lon="13.887306999513793"><ele>469.0</ele><time>2026-04-10T14:51:04Z</time></trkpt><trkpt lat="45.648340825848244" lon="13.887385775408202"><ele>469.0</ele><time>2026-04-10T14:51:09Z</time></trkpt><trkpt lat="45.648400548288905" lon="13.887453488325367"><ele>469.0</ele><time>2026-04-10T14:51:15Z</time></trkpt><trkpt lat="45.64844364678727" lon="13.887529631282582"><ele>469.0</ele><time>2026-04-10T14:51:21Z</time></trkpt><trkpt lat="45.648487245075" lon="13.887604807302296"><ele>469.0</ele><time>2026-04-10T14:51:27Z</time></trkpt><trkpt lat="45.648540785106114" lon="13.887663707059795"><ele>469.0</ele><time>2026-04-10T14:51:31.999Z</time></trkpt><trkpt lat="45.64859100323929" lon="13.887737243131724"><ele>469.0</ele><time>2026-04-10T14:51:37.999Z</time></trkpt><trkpt lat="45.648647159307" lon="13.887784251620685"><ele>469.8571428571429</ele><time>2026-04-10T14:51:43.999Z</time></trkpt><trkpt lat="45.64868522515917" lon="13.88786698745851"><ele>470.7142857142857</ele><time>2026-04-10T14:51:50.999Z</time></trkpt><trkpt lat="45.64872648700439" lon="13.887943994325045"><ele>471.57142857142856</ele><time>2026-04-10T14:51:56.999Z</time></trkpt><trkpt lat="45.64876615026878" lon="13.888028378376763"><ele>472.42857142857144</ele><time>2026-04-10T14:52:02.999Z</time></trkpt><trkpt lat="45.64879708444908" lon="13.888122391644114"><ele>473.28571428571433</ele><time>2026-04-10T14:52:09.999Z</time></trkpt><trkpt lat="45.64883463217425" lon="13.888217423813247"><ele>474.14285714285717</ele><time>2026-04-10T14:52:16.999Z</time></trkpt><trkpt lat="45.648870719558715" lon="13.888297887759462"><ele>475.0</ele><time>2026-04-10T14:52:22.999Z</time></trkpt><trkpt lat="45.648898521799396" lon="13.888387538573543"><ele>477.7142857142857</ele><time>2026-04-10T14:52:28.999Z</time></trkpt><trkpt lat="45.648937352317795" lon="13.888471304347489"><ele>480.42857142857144</ele><time>2026-04-10T14:52:35.999Z</time></trkpt><trkpt lat="45.64897132539721" lon="13.888561041477688"><ele>483.14285714285717</ele><time>2026-04-10T14:52:41.999Z</time></trkpt><trkpt lat="45.649004257649075" lon="13.888646084992434"><ele>485.8571428571429</ele><time>2026-04-10T14:52:47.999Z</time></trkpt><trkpt lat="45.649033031554126" lon="13.888731436836315"><ele>488.57142857142856</ele><time>2026-04-10T14:52:53.999Z</time></trkpt><trkpt lat="45.6490527924374" lon="13.888825024083337"><ele>491.28571428571433</ele><time>2026-04-10T14:53:01Z</time></trkpt><trkpt lat="45.64903300632232" lon="13.888917525550097"><ele>494.0</ele><time>2026-04-10T14:53:08Z</time></trkpt><trkpt lat="45.64900004352497" lon="13.889002151745709"><ele>494.0</ele><time>2026-04-10T14:53:14Z</time></trkpt><trkpt lat="45.648986055308846" lon="13.889100709969215"><ele>494.0</ele><time>2026-04-10T14:53:20Z</time></trkpt><trkpt lat="45.6490082595672" lon="13.889198025145017"><ele>494.0</ele><time>2026-04-10T14:53:26Z</time></trkpt><trkpt lat="45.649055280583795" lon="13.889258119094269"><ele>494.0</ele><time>2026-04-10T14:53:31Z</time></trkpt><trkpt lat="45.64911910629812" lon="13.889318754874775"><ele>494.0</ele><time>2026-04-10T14:53:38Z</time></trkpt><trkpt lat="45.64918435493326" lon="13.889313189787922"><ele>494.0</ele><time>2026-04-10T14:53:45Z</time></trkpt><trkpt lat="45.649239684646595" lon="13.889367365639227"><ele>494.0</ele><time>2026-04-10T14:53:50.999Z</time></trkpt><trkpt lat="45.64928544921053" lon="13.889445862098187"><ele>496.0</ele><time>2026-04-10T14:53:56.999Z</time></trkpt><trkpt lat="45.64932658946088" lon="13.889534631756936"><ele>498.0</ele><time>2026-04-10T14:54:02.999Z</time></trkpt><trkpt lat="45.649348438193925" lon="13.889631644259191"><ele>500.0</ele><time>2026-04-10T14:54:09.999Z</time></trkpt><trkpt lat="45.64937834837526" lon="13.88972532127265"><ele>502.0</ele><time>2026-04-10T14:54:15.999Z</time></trkpt><trkpt lat="45.64939774051918" lon="13.889816500997368"><ele>504.0</ele><time>2026-04-10T14:54:21.999Z</time></trkpt><trkpt lat="45.64941991401727" lon="13.889900931087269"><ele>506.0</ele><time>2026-04-10T14:54:27.999Z</time></trkpt><trkpt lat="45.649443842635044" lon="13.88999446614853"><ele>508.0</ele><time>2026-04-10T14:54:33.999Z</time></trkpt><trkpt lat="45.64946215589711" lon="13.890093833261187"><ele>508.0</ele><time>2026-04-10T14:54:40.999Z</time></trkpt><trkpt lat="45.6494781185659" lon="13.890181067092803"><ele>508.0</ele><time>2026-04-10T14:54:46.999Z</time></trkpt><trkpt lat="45.64949300256811" lon="13.89028560726944"><ele>508.0</ele><time>2026-04-10T14:54:54.999Z</time></trkpt><trkpt lat="45.64951479932052" lon="13.890374977378762"><ele>508.0</ele><time>2026-04-10T14:55:01Z</time></trkpt><trkpt lat="45.649525284300566" lon="13.890466480666761"><ele>508.0</ele><time>2026-04-10T14:55:07Z</time></trkpt><trkpt lat="45.649536206117865" lon="13.890559111241341"><ele>508.0</ele><time>2026-04-10T14:55:12Z</time></trkpt><trkpt lat="45.64954973753956" lon="13.890652143474853"><ele>508.0</ele><time>2026-04-10T14:55:18Z</time></trkpt><trkpt lat="45.64956317421036" lon="13.89075494831917"><ele>508.0</ele><time>2026-04-10T14:55:25Z</time></trkpt><trkpt lat="45.64957808204032" lon="13.890845858219242"><ele>508.0</ele><time>2026-04-10T14:55:31Z</time></trkpt><trkpt lat="45.649590210698726" lon="13.890943690986472"><ele>508.0</ele><time>2026-04-10T14:55:38Z</time></trkpt><trkpt lat="45.64959308768568" lon="13.891044848983732"><ele>508.0</ele><time>2026-04-10T14:55:45Z</time></trkpt><trkpt lat="45.64960616598198" lon="13.891134791029144"><ele>508.0</ele><time>2026-04-10T14:55:51Z</time></trkpt><trkpt lat="45.649619960514926" lon="13.891227200245156"><ele>508.0</ele><time>2026-04-10T14:55:56.999Z</time></trkpt><trkpt lat="45.64961985598596" lon="13.891320586153313"><ele>508.0</ele><time>2026-04-10T14:56:02.999Z</time></trkpt><trkpt lat="45.64962357093794" lon="13.891416773168492"><ele>509.28571428571433</ele><time>2026-04-10T14:56:08.999Z</time></trkpt><trkpt lat="45.649635840015485" lon="13.891515531689686"><ele>510.57142857142856</ele><time>2026-04-10T14:56:14.999Z</time></trkpt><trkpt lat="45.64964880096616" lon="13.891608778766198"><ele>511.8571428571429</ele><time>2026-04-10T14:56:21.999Z</time></trkpt><trkpt lat="45.64966863814736" lon="13.891697353151137"><ele>513.1428571428571</ele><time>2026-04-10T14:56:27.999Z</time></trkpt><trkpt lat="45.64966524453243" lon="13.891797252800218"><ele>514.4285714285714</ele><time>2026-04-10T14:56:34.999Z</time></trkpt><trkpt lat="45.649676098242736" lon="13.891892546115784"><ele>515.7142857142858</ele><time>2026-04-10T14:56:40.999Z</time></trkpt><trkpt lat="45.64968386214753" lon="13.891984453327224"><ele>517.0</ele><time>2026-04-10T14:56:46.999Z</time></trkpt><trkpt lat="45.649679758701375" lon="13.892074900071876"><ele>517.8571428571429</ele><time>2026-04-10T14:56:52.999Z</time></trkpt><trkpt lat="45.64967275796672" lon="13.892178028487669"><ele>518.7142857142858</ele><time>2026-04-10T14:56:59.999Z</time></trkpt><trkpt lat="45.64967036404083" lon="13.892281973722653"><ele>519.5714285714286</ele><time>2026-04-10T14:57:07Z</time></trkpt><trkpt lat="45.649673646877694" lon="13.89237216157243"><ele>520.4285714285714</ele><time>2026-04-10T14:57:13Z</time></trkpt><trkpt lat="45.64966796833409" lon="13.892464830534411"><ele>521.2857142857142</ele><time>2026-04-10T14:57:19Z</time></trkpt><trkpt lat="45.649686190474604" lon="13.892559539260185"><ele>522.1428571428571</ele><time>2026-04-10T14:57:25Z</time></trkpt><trkpt lat="45.6496796982036" lon="13.892653501734694"><ele>523.0</ele><time>2026-04-10T14:57:30Z</time></trkpt><trkpt lat="45.649681705131535" lon="13.89274449885155"><ele>523.9999999999999</ele><time>2026-04-10T14:57:35Z</time></trkpt><trkpt lat="45.649675336204254" lon="13.89283965846428"><ele>525.0</ele><time>2026-04-10T14:57:41Z</time></trkpt><trkpt lat="45.64968730127022" lon="13.892931411628156"><ele>526.0</ele><time>2026-04-10T14:57:47Z</time></trkpt><trkpt lat="45.6496886635166" lon="13.893031600627301"><ele>527.0</ele><time>2026-04-10T14:57:54Z</time></trkpt><trkpt lat="45.64968682833358" lon="13.893134443541582"><ele>528.0</ele><time>2026-04-10T14:58:00Z</time></trkpt><trkpt lat="45.649699782213034" lon="13.893222920534807"><ele>528.9999999999999</ele><time>2026-04-10T14:58:05Z</time></trkpt><trkpt lat="45.64970619758982" lon="13.89331553565749"><ele>530.0</ele><time>2026-04-10T14:58:11.999Z</time></trkpt><trkpt lat="45.64971281862765" lon="13.893413733818784"><ele>531.7142857142857</ele><time>2026-04-10T14:58:18.999Z</time></trkpt><trkpt lat="45.64970879722337" lon="13.893505500678177"><ele>533.4285714285714</ele><time>2026-04-10T14:58:24.999Z</time></trkpt><trkpt lat="45.649703401186294" lon="13.893606454481535"><ele>535.1428571428571</ele><time>2026-04-10T14:58:31.999Z</time></trkpt><trkpt lat="45.64972791835469" lon="13.893696326397528"><ele>536.8571428571429</ele><time>2026-04-10T14:58:37.999Z</time></trkpt><trkpt lat="45.64973294246616" lon="13.89379392041249"><ele>538.5714285714286</ele><time>2026-04-10T14:58:43.999Z</time></trkpt><trkpt lat="45.64974554889973" lon="13.893884145907867"><ele>540.2857142857142</ele><time>2026-04-10T14:58:49.999Z</time></trkpt><trkpt lat="45.64975576657395" lon="13.89398229668442"><ele>542.0</ele><time>2026-04-10T14:58:56.999Z</time></trkpt><trkpt lat="45.64974548953201" lon="13.894079732204506"><ele>542.0</ele><time>2026-04-10T14:59:01.999Z</time></trkpt><trkpt lat="45.649744244448335" lon="13.894171572887197"><ele>542.0</ele><time>2026-04-10T14:59:07.999Z</time></trkpt><trkpt lat="45.6497513403877" lon="13.894276641706634"><ele>542.0</ele><time>2026-04-10T14:59:14Z</time></trkpt><trkpt lat="45.64975262383565" lon="13.894378541108203"><ele>542.0</ele><time>2026-04-10T14:59:20Z</time></trkpt><trkpt lat="45.64974375900859" lon="13.8944749353918"><ele>542.0</ele><time>2026-04-10T14:59:26Z</time></trkpt><trkpt lat="45.64974846626505" lon="13.894580200763768"><ele>542.0</ele><time>2026-04-10T14:59:33Z</time></trkpt><trkpt lat="45.649752235122016" lon="13.894672769971862"><ele>542.0</ele><time>2026-04-10T14:59:38Z</time></trkpt><trkpt lat="45.649748290543435" lon="13.894766696411867"><ele>542.1428571428571</ele><time>2026-04-10T14:59:43Z</time></trkpt><trkpt lat="45.64973224288769" lon="13.894867960738022"><ele>542.2857142857143</ele><time>2026-04-10T14:59:49Z</time></trkpt><trkpt lat="45.64971866483462" lon="13.894971960423888"><ele>542.4285714285714</ele><time>2026-04-10T14:59:55Z</time></trkpt><trkpt lat="45.64970509136546" lon="13.895060466362391"><ele>542.5714285714286</ele><time>2026-04-10T15:00:00Z</time></trkpt><trkpt lat="45.6496973760119" lon="13.895152532895343"><ele>542.7142857142857</ele><time>2026-04-10T15:00:05Z</time></trkpt><trkpt lat="45.649657329026894" lon="13.89523820179337"><ele>542.8571428571429</ele><time>2026-04-10T15:00:13Z</time></trkpt><trkpt lat="45.64959275417245" lon="13.895232993496235"><ele>543.0</ele><time>2026-04-10T15:00:18Z</time></trkpt><trkpt lat="45.64954318633776" lon="13.895167496630275"><ele>543.0</ele><time>2026-04-10T15:00:27.999Z</time></trkpt><trkpt lat="45.64951163462416" lon="13.895076722102766"><ele>543.0</ele><time>2026-04-10T15:00:35.999Z</time></trkpt><trkpt lat="45.64947123387488" lon="13.894990522358338"><ele>543.0</ele><time>2026-04-10T15:00:40.999Z</time></trkpt><trkpt lat="45.64944867619429" lon="13.89489779141446"><ele>543.0</ele><time>2026-04-10T15:00:44.999Z</time></trkpt><trkpt lat="45.64941113843638" lon="13.894812369176828"><ele>543.0</ele><time>2026-04-10T15:00:50.999Z</time></trkpt><trkpt lat="45.64936925513082" lon="13.894738713690357"><ele>543.0</ele><time>2026-04-10T15:00:55.999Z</time></trkpt><trkpt lat="45.649343571497816" lon="13.894641178877148"><ele>543.0</ele><time>2026-04-10T15:01:01.999Z</time></trkpt><trkpt lat="45.649309231463384" lon="13.89454612512914"><ele>545.4285714285714</ele><time>2026-04-10T15:01:06.999Z</time></trkpt><trkpt lat="45.64927839935644" lon="13.894460869308864"><ele>547.8571428571429</ele><time>2026-04-10T15:01:11.999Z</time></trkpt><trkpt lat="45.64924171773889" lon="13.894377343265123"><ele>550.2857142857142</ele><time>2026-04-10T15:01:15.999Z</time></trkpt><trkpt lat="45.649212148391236" lon="13.89429595708477"><ele>552.7142857142858</ele><time>2026-04-10T15:01:20Z</time></trkpt><trkpt lat="45.64917365802753" lon="13.89421937558728"><ele>555.1428571428571</ele><time>2026-04-10T15:01:26Z</time></trkpt><trkpt lat="45.6491488194176" lon="13.894134562073148"><ele>557.5714285714286</ele><time>2026-04-10T15:01:31Z</time></trkpt><trkpt lat="45.649111524694334" lon="13.894032918048016"><ele>560.0</ele><time>2026-04-10T15:01:36Z</time></trkpt><trkpt lat="45.649072286245534" lon="13.893934572824838"><ele>560.0</ele><time>2026-04-10T15:01:42Z</time></trkpt><trkpt lat="45.649033480637485" lon="13.89383865362975"><ele>560.0</ele><time>2026-04-10T15:01:48Z</time></trkpt><trkpt lat="45.649000261653576" lon="13.89375638147096"><ele>560.0</ele><time>2026-04-10T15:01:52Z</time></trkpt><trkpt lat="45.648967202464256" lon="13.893672108097618"><ele>560.0</ele><time>2026-04-10T15:01:56Z</time></trkpt><trkpt lat="45.64893154182167" lon="13.89357503081577"><ele>560.0</ele><time>2026-04-10T15:02:02Z</time></trkpt><trkpt lat="45.64887561985834" lon="13.893521032175256"><ele>560.0</ele><time>2026-04-10T15:02:07Z</time></trkpt><trkpt lat="45.64881037584232" lon="13.893500472268792"><ele>560.0</ele><time>2026-04-10T15:02:14Z</time></trkpt><trkpt lat="45.64880265821356" lon="13.893599127999355"><ele>560.0</ele><time>2026-04-10T15:02:21Z</time></trkpt><trkpt lat="45.648824471105186" lon="13.893697067352612"><ele>560.0</ele><time>2026-04-10T15:02:26Z</time></trkpt><trkpt lat="45.64885674820232" lon="13.893783792476837"><ele>560.0</ele><time>2026-04-10T15:02:31Z</time></trkpt><trkpt lat="45.648888509615766" lon="13.893868235591707"><ele>560.0</ele><time>2026-04-10T15:02:37Z</time></trkpt><trkpt lat="45.6489074678832" lon="13.893965281287397"><ele>560.0</ele><time>2026-04-10T15:02:41.999Z</time></trkpt><trkpt lat="45.648924223930415" lon="13.894055335903504"><ele>560.0</ele><time>2026-04-10T15:02:46.999Z</time></trkpt><trkpt lat="45.6489060679007" lon="13.894152054663284"><ele>560.0</ele><time>2026-04-10T15:02:53.999Z</time></trkpt><trkpt lat="45.648915165328894" lon="13.894255808502766"><ele>560.7142857142857</ele><time>2026-04-10T15:02:59.999Z</time></trkpt><trkpt lat="45.64892729782472" lon="13.894345213419669"><ele>561.4285714285714</ele><time>2026-04-10T15:03:06.999Z</time></trkpt><trkpt lat="45.648925384089125" lon="13.894438138045597"><ele>562.1428571428571</ele><time>2026-04-10T15:03:12.999Z</time></trkpt><trkpt lat="45.648936476805446" lon="13.894530308355295"><ele>562.8571428571429</ele><time>2026-04-10T15:03:18.999Z</time></trkpt><trkpt lat="45.64893513607987" lon="13.894636712926346"><ele>563.5714285714286</ele><time>2026-04-10T15:03:26Z</time></trkpt><trkpt lat="45.64893246292449" lon="13.894743390512213"><ele>564.2857142857142</ele><time>2026-04-10T15:03:33Z</time></trkpt><trkpt lat="45.64892297485205" lon="13.894841706210059"><ele>565.0</ele><time>2026-04-10T15:03:39Z</time></trkpt><trkpt lat="45.64891202178005" lon="13.894950279181716"><ele>564.9999999999999</ele><time>2026-04-10T15:03:45Z</time></trkpt><trkpt lat="45.648891758533075" lon="13.895047963611745"><ele>565.0</ele><time>2026-04-10T15:03:51Z</time></trkpt><trkpt lat="45.64886828153799" lon="13.895133088675609"><ele>565.0</ele><time>2026-04-10T15:03:57Z</time></trkpt><trkpt lat="45.64884266310457" lon="13.895234144569827"><ele>565.0</ele><time>2026-04-10T15:04:04Z</time></trkpt><trkpt lat="45.6487837673618" lon="13.895266568394815"><ele>565.0</ele><time>2026-04-10T15:04:09Z</time></trkpt><trkpt lat="45.648724031412904" lon="13.895235911642228"><ele>564.9999999999999</ele><time>2026-04-10T15:04:18Z</time></trkpt><trkpt lat="45.64870500526506" lon="13.895147450083881"><ele>565.0</ele><time>2026-04-10T15:04:25Z</time></trkpt><trkpt lat="45.64868238394673" lon="13.895052834289773"><ele>564.9999999999999</ele><time>2026-04-10T15:04:31Z</time></trkpt><trkpt lat="45.64866379303062" lon="13.894958221820287"><ele>565.0</ele><time>2026-04-10T15:04:36Z</time></trkpt><trkpt lat="45.64864599101995" lon="13.894871138559713"><ele>565.0</ele><time>2026-04-10T15:04:40Z</time></trkpt><trkpt lat="45.64862009033446" lon="13.894780945494317"><ele>565.0</ele><time>2026-04-10T15:04:44Z</time></trkpt><trkpt lat="45.64859714764198" lon="13.894696874796995"><ele>565.0</ele><time>2026-04-10T15:04:48Z</time></trkpt><trkpt lat="45.64855552181937" lon="13.894606308814353"><ele>564.9999999999999</ele><time>2026-04-10T15:04:54Z</time></trkpt><trkpt lat="45.648512719152414" lon="13.894534880124542"><ele>565.0</ele><time>2026-04-10T15:04:58.999Z</time></trkpt><trkpt lat="45.64846989288241" lon="13.894466914373679"><ele>567.2857142857142</ele><time>2026-04-10T15:05:02.999Z</time></trkpt><trkpt lat="45.64842102249163" lon="13.894382351268979"><ele>569.5714285714286</ele><time>2026-04-10T15:05:08.999Z</time></trkpt><trkpt lat="45.6483776339041" lon="13.89428659858367"><ele>571.8571428571429</ele><time>2026-04-10T15:05:13.999Z</time></trkpt><trkpt lat="45.648334942745386" lon="13.894202284204951"><ele>574.1428571428571</ele><time>2026-04-10T15:05:18.999Z</time></trkpt><trkpt lat="45.64828758340226" lon="13.894131546915627"><ele>576.4285714285714</ele><time>2026-04-10T15:05:24.999Z</time></trkpt><trkpt lat="45.64824038532869" lon="13.894064977943998"><ele>578.7142857142857</ele><time>2026-04-10T15:05:31Z</time></trkpt><trkpt lat="45.64818815711208" lon="13.894000718928256"><ele>581.0</ele><time>2026-04-10T15:05:37Z</time></trkpt><trkpt lat="45.64814155098758" lon="13.893936657010219"><ele>581.0</ele><time>2026-04-10T15:05:42Z</time></trkpt><trkpt lat="45.648084530552055" lon="13.893884072451316"><ele>581.0</ele><time>2026-04-10T15:05:48Z</time></trkpt><trkpt lat="45.64803049361949" lon="13.893816057766234"><ele>581.0</ele><time>2026-04-10T15:05:54Z</time></trkpt><trkpt lat="45.64798409623342" lon="13.89374623093613"><ele>581.0</ele><time>2026-04-10T15:06:00Z</time></trkpt><trkpt lat="45.64793975514979" lon="13.893676796581753"><ele>581.0</ele><time>2026-04-10T15:06:06Z</time></trkpt><trkpt lat="45.64787982040269" lon="13.893623774540105"><ele>581.0</ele><time>2026-04-10T15:06:12Z</time></trkpt><trkpt lat="45.647833920267885" lon="13.893551141979838"><ele>581.0</ele><time>2026-04-10T15:06:18Z</time></trkpt><trkpt lat="45.64779758722252" lon="13.893476188422488"><ele>581.0</ele><time>2026-04-10T15:06:24Z</time></trkpt><trkpt lat="45.64774957904461" lon="13.893411444920364"><ele>581.0</ele><time>2026-04-10T15:06:29Z</time></trkpt><trkpt lat="45.64768444122015" lon="13.89344483254077"><ele>581.0</ele><time>2026-04-10T15:06:36Z</time></trkpt><trkpt lat="45.647675925563995" lon="13.893548553924983"><ele>581.0</ele><time>2026-04-10T15:06:42Z</time></trkpt><trkpt lat="45.64771471807814" lon="13.893647449418921"><ele>581.0</ele><time>2026-04-10T15:06:48Z</time></trkpt><trkpt lat="45.64775657097059" lon="13.89373241072863"><ele>581.0</ele><time>2026-04-10T15:06:53Z</time></trkpt><trkpt lat="45.64778838372994" lon="13.893829004118341"><ele>581.0</ele><time>2026-04-10T15:06:58Z</time></trkpt><trkpt lat="45.64781443727322" lon="13.893923258631494"><ele>581.0</ele><time>2026-04-10T15:07:03Z</time></trkpt><trkpt lat="45.64783878927018" lon="13.894021155458745"><ele>581.0</ele><time>2026-04-10T15:07:08Z</time></trkpt><trkpt lat="45.64786802004395" lon="13.894110593405696"><ele>581.0</ele><time>2026-04-10T15:07:12.999Z</time></trkpt><trkpt lat="45.64789180237073" lon="13.894203636962398"><ele>581.0</ele><time>2026-04-10T15:07:17.999Z</time></trkpt><trkpt lat="45.64789528916087" lon="13.894305052777224"><ele>581.0</ele><time>2026-04-10T15:07:22.999Z</time></trkpt><trkpt lat="45.647901588595055" lon="13.894417178025046"><ele>581.0</ele><time>2026-04-10T15:07:28.999Z</time></trkpt><trkpt lat="45.647917596448146" lon="13.894506349842398"><ele>581.0</ele><time>2026-04-10T15:07:33.999Z</time></trkpt><trkpt lat="45.647928442544085" lon="13.894606791964263"><ele>581.2857142857143</ele><time>2026-04-10T15:07:39Z</time></trkpt><trkpt lat="45.64795089783663" lon="13.894708095344342"><ele>581.5714285714286</ele><time>2026-04-10T15:07:44Z</time></trkpt><trkpt lat="45.64795883970661" lon="13.894809241333439"><ele>581.8571428571429</ele><time>2026-04-10T15:07:49Z</time></trkpt><trkpt lat="45.64796411849283" lon="13.894912969447256"><ele>582.1428571428571</ele><time>2026-04-10T15:07:54Z</time></trkpt><trkpt lat="45.647965277946255" lon="13.895023511003352"><ele>582.4285714285714</ele><time>2026-04-10T15:07:59Z</time></trkpt><trkpt lat="45.64795346495015" lon="13.895131581581927"><ele>582.7142857142858</ele><time>2026-04-10T15:08:05Z</time></trkpt><trkpt lat="45.64795925943906" lon="13.89522978840027"><ele>583.0</ele><time>2026-04-10T15:08:10Z</time></trkpt><trkpt lat="45.64796659513173" lon="13.895334953552606"><ele>583.0000000000001</ele><time>2026-04-10T15:08:15Z</time></trkpt><trkpt lat="45.64793342957616" lon="13.895412589454626"><ele>583.0</ele><time>2026-04-10T15:08:21Z</time></trkpt><trkpt lat="45.64787327037138" lon="13.895440469270332"><ele>583.0</ele><time>2026-04-10T15:08:26Z</time></trkpt><trkpt lat="45.647817685192166" lon="13.895378644995853"><ele>583.0</ele><time>2026-04-10T15:08:33Z</time></trkpt><trkpt lat="45.64778584319867" lon="13.895287913234089"><ele>583.0</ele><time>2026-04-10T15:08:39Z</time></trkpt><trkpt lat="45.64777641770144" lon="13.895195041502216"><ele>583.0000000000001</ele><time>2026-04-10T15:08:46Z</time></trkpt><trkpt lat="45.64775217367212" lon="13.895110771003782"><ele>583.0</ele><time>2026-04-10T15:08:52Z</time></trkpt><trkpt lat="45.647728064096945" lon="13.895007138911911"><ele>587.1428571428572</ele><time>2026-04-10T15:08:57Z</time></trkpt><trkpt lat="45.64770553013875" lon="13.894921932846751"><ele>591.2857142857143</ele><time>2026-04-10T15:09:01Z</time></trkpt><trkpt lat="45.64767082734036" lon="13.894836416732193"><ele>595.4285714285714</ele><time>2026-04-10T15:09:06Z</time></trkpt><trkpt lat="45.647625746533045" lon="13.894770294666184"><ele>599.5714285714287</ele><time>2026-04-10T15:09:11Z</time></trkpt><trkpt lat="45.647609627280744" lon="13.894678971303415"><ele>603.7142857142858</ele><time>2026-04-10T15:09:16Z</time></trkpt><trkpt lat="45.647581520763964" lon="13.894575003496678"><ele>607.8571428571429</ele><time>2026-04-10T15:09:21Z</time></trkpt><trkpt lat="45.64753370785674" lon="13.89449597264675"><ele>612.0</ele><time>2026-04-10T15:09:25.999Z</time></trkpt><trkpt lat="45.64749257145704" lon="13.89441770197235"><ele>612.0</ele><time>2026-04-10T15:09:30.999Z</time></trkpt><trkpt lat="45.64743676559475" lon="13.89434912307014"><ele>612.0</ele><time>2026-04-10T15:09:35.999Z</time></trkpt><trkpt lat="45.6473847802113" lon="13.894283029472824"><ele>612.0</ele><time>2026-04-10T15:09:41Z</time></trkpt><trkpt lat="45.64730527172594" lon="13.894213464782357"><ele>612.0</ele><time>2026-04-10T15:09:51Z</time></trkpt><trkpt lat="45.64724226129824" lon="13.894162633309813"><ele>612.0</ele><time>2026-04-10T15:09:57Z</time></trkpt><trkpt lat="45.64718672747962" lon="13.894216105903531"><ele>612.0</ele><time>2026-04-10T15:10:07Z</time></trkpt><trkpt lat="45.647158594017576" lon="13.894303113152791"><ele>612.0</ele><time>2026-04-10T15:10:14Z</time></trkpt><trkpt lat="45.64715847627855" lon="13.894414749162921"><ele>612.0</ele><time>2026-04-10T15:10:22Z</time></trkpt><trkpt lat="45.647142794560416" lon="13.894521676376769"><ele>612.0</ele><time>2026-04-10T15:10:28Z</time></trkpt><trkpt lat="45.64712625403271" lon="13.89461461043262"><ele>612.0</ele><time>2026-04-10T15:10:34Z</time></trkpt><trkpt lat="45.64712750904469" lon="13.894704769140276"><ele>612.0</ele><time>2026-04-10T15:10:39Z</time></trkpt><trkpt lat="45.64709968844204" lon="13.894785605674493"><ele>612.0</ele><time>2026-04-10T15:10:43Z</time></trkpt><trkpt lat="45.64707293186215" lon="13.894877614312247"><ele>612.0</ele><time>2026-04-10T15:10:49Z</time></trkpt><trkpt lat="45.64705381060465" lon="13.894968161424151"><ele>612.0</ele><time>2026-04-10T15:10:55Z</time></trkpt><trkpt lat="45.64702715512131" lon="13.895058696440223"><ele>611.1428571428571</ele><time>2026-04-10T15:11:02Z</time></trkpt><trkpt lat="45.64700182412114" lon="13.895147302812637"><ele>610.2857142857143</ele><time>2026-04-10T15:11:08Z</time></trkpt><trkpt lat="45.6469624705163" lon="13.895230806882047"><ele>609.4285714285714</ele><time>2026-04-10T15:11:15Z</time></trkpt><trkpt lat="45.646919331772274" lon="13.895300100718602"><ele>608.5714285714286</ele><time>2026-04-10T15:11:20Z</time></trkpt><trkpt lat="45.64686868599395" lon="13.895364654719094"><ele>607.7142857142857</ele><time>2026-04-10T15:11:27Z</time></trkpt><trkpt lat="45.64681348167944" lon="13.895432271185538"><ele>606.8571428571429</ele><time>2026-04-10T15:11:33Z</time></trkpt><trkpt lat="45.646770233219435" lon="13.895503283079577"><ele>606.0</ele><time>2026-04-10T15:11:36.999Z</time></trkpt><trkpt lat="45.6467136079134" lon="13.895561678725992"><ele>606.2857142857143</ele><time>2026-04-10T15:11:43.999Z</time></trkpt><trkpt lat="45.646655257782285" lon="13.895611917210456"><ele>606.5714285714286</ele><time>2026-04-10T15:11:50Z</time></trkpt><trkpt lat="45.64658826627425" lon="13.895663670815841"><ele>606.8571428571429</ele><time>2026-04-10T15:11:56Z</time></trkpt><trkpt lat="45.64653201103786" lon="13.89571322920598"><ele>607.1428571428571</ele><time>2026-04-10T15:12:01Z</time></trkpt><trkpt lat="45.646479360291565" lon="13.89577530121037"><ele>607.4285714285714</ele><time>2026-04-10T15:12:06Z</time></trkpt><trkpt lat="45.646427427683435" lon="13.895844109993213"><ele>607.7142857142857</ele><time>2026-04-10T15:12:11Z</time></trkpt><trkpt lat="45.64637130735093" lon="13.89590839978273"><ele>608.0</ele><time>2026-04-10T15:12:18Z</time></trkpt><trkpt lat="45.6463199486296" lon="13.89597069862258"><ele>608.0</ele><time>2026-04-10T15:12:23Z</time></trkpt><trkpt lat="45.646263581786286" lon="13.896012597820668"><ele>608.0</ele><time>2026-04-10T15:12:28Z</time></trkpt><trkpt lat="45.6461954577602" lon="13.89605181831914"><ele>608.0</ele><time>2026-04-10T15:12:33Z</time></trkpt><trkpt lat="45.6461141467155" lon="13.896101124919765"><ele>608.0</ele><time>2026-04-10T15:12:38Z</time></trkpt><trkpt lat="45.646048340007624" lon="13.896087423055285"><ele>608.0</ele><time>2026-04-10T15:12:44Z</time></trkpt><trkpt lat="45.64598346673213" lon="13.896113263836739"><ele>608.0</ele><time>2026-04-10T15:12:50Z</time></trkpt><trkpt lat="45.64591555276191" lon="13.89613323335867"><ele>608.0</ele><time>2026-04-10T15:12:56Z</time></trkpt><trkpt lat="45.6458461868711" lon="13.896126312529498"><ele>611.0</ele><time>2026-04-10T15:13:03Z</time></trkpt><trkpt lat="45.645771761195235" lon="13.89613453302226"><ele>614.0</ele><time>2026-04-10T15:13:09Z</time></trkpt><trkpt lat="45.64569635742224" lon="13.896138024143015"><ele>617.0</ele><time>2026-04-10T15:13:15Z</time></trkpt><trkpt lat="45.64562712745868" lon="13.896156260199714"><ele>620.0</ele><time>2026-04-10T15:13:20Z</time></trkpt><trkpt lat="45.64555690406288" lon="13.896177834853361"><ele>623.0</ele><time>2026-04-10T15:13:25Z</time></trkpt><trkpt lat="45.645489473116825" lon="13.89621205904162"><ele>626.0</ele><time>2026-04-10T15:13:31Z</time></trkpt><trkpt lat="45.64542910132883" lon="13.89625870771046"><ele>629.0</ele><time>2026-04-10T15:13:38Z</time></trkpt><trkpt lat="45.64536870054235" lon="13.896307116083324"><ele>629.0</ele><time>2026-04-10T15:13:44Z</time></trkpt><trkpt lat="45.645314440171894" lon="13.896355453143835"><ele>629.0</ele><time>2026-04-10T15:13:48Z</time></trkpt><trkpt lat="45.64525388788022" lon="13.896404553483977"><ele>629.0</ele><time>2026-04-10T15:13:55Z</time></trkpt><trkpt lat="45.64519364690452" lon="13.896452107201716"><ele>629.0</ele><time>2026-04-10T15:14:02Z</time></trkpt><trkpt lat="45.645131067148526" lon="13.896494108354437"><ele>629.0</ele><time>2026-04-10T15:14:09Z</time></trkpt><trkpt lat="45.64506215716131" lon="13.896532615616183"><ele>629.0</ele><time>2026-04-10T15:14:16Z</time></trkpt><trkpt lat="45.6450074899616" lon="13.896577824467279"><ele>629.0</ele><time>2026-04-10T15:14:22Z</time></trkpt><trkpt lat="45.644959701946604" lon="13.896659797311683"><ele>632.2857142857142</ele><time>2026-04-10T15:14:28Z</time></trkpt><trkpt lat="45.64490187714503" lon="13.896718908322903"><ele>635.5714285714287</ele><time>2026-04-10T15:14:36Z</time></trkpt><trkpt lat="45.64486428399496" lon="13.896791810200057"><ele>638.8571428571429</ele><time>2026-04-10T15:14:41Z</time></trkpt><trkpt lat="45.64482344334726" lon="13.896879540197727"><ele>642.1428571428571</ele><time>2026-04-10T15:14:46Z</time></trkpt><trkpt lat="45.64481936774743" lon="13.896975322094306"><ele>645.4285714285713</ele><time>2026-04-10T15:14:51Z</time></trkpt><trkpt lat="45.644856032745565" lon="13.897060598821351"><ele>648.7142857142858</ele><time>2026-04-10T15:14:56Z</time></trkpt><trkpt lat="45.644859944800324" lon="13.897152532393472"><ele>652.0</ele><time>2026-04-10T15:15:01Z</time></trkpt><trkpt lat="45.644867383227236" lon="13.89725195046755"><ele>652.0</ele><time>2026-04-10T15:15:06Z</time></trkpt><trkpt lat="45.64487077813846" lon="13.897350683296951"><ele>652.0</ele><time>2026-04-10T15:15:12Z</time></trkpt><trkpt lat="45.644858629884496" lon="13.897447863889253"><ele>652.0</ele><time>2026-04-10T15:15:17Z</time></trkpt><trkpt lat="45.644820684228975" lon="13.897524598958421"><ele>652.0</ele><time>2026-04-10T15:15:23Z</time></trkpt><trkpt lat="45.64477804077973" lon="13.897593261847655"><ele>652.0</ele><time>2026-04-10T15:15:27Z</time></trkpt><trkpt lat="45.64474045524714" lon="13.897669529319012"><ele>652.0</ele><time>2026-04-10T15:15:33Z</time></trkpt><trkpt lat="45.64468986318248" lon="13.897749061558507"><ele>652.0</ele><time>2026-04-10T15:15:38Z</time></trkpt><trkpt lat="45.64464604225585" lon="13.897826193490538"><ele>652.0</ele><time>2026-04-10T15:15:44Z</time></trkpt><trkpt lat="45.64460116164562" lon="13.897903018555725"><ele>652.0</ele><time>2026-04-10T15:15:49Z</time></trkpt><trkpt lat="45.64455902039486" lon="13.897977446681207"><ele>652.0</ele><time>2026-04-10T15:15:54Z</time></trkpt><trkpt lat="45.644515779437334" lon="13.898054423283645"><ele>652.0</ele><time>2026-04-10T15:16:00Z</time></trkpt><trkpt lat="45.64446587843481" lon="13.898114664012164"><ele>652.0</ele><time>2026-04-10T15:16:04Z</time></trkpt><trkpt lat="45.64440450619275" lon="13.89816885123672"><ele>652.0</ele><time>2026-04-10T15:16:09Z</time></trkpt><trkpt lat="45.644348510800285" lon="13.898211333841736"><ele>652.0</ele><time>2026-04-10T15:16:14Z</time></trkpt><trkpt lat="45.64428968036385" lon="13.898251985321819"><ele>653.7142857142858</ele><time>2026-04-10T15:16:20Z</time></trkpt><trkpt lat="45.64422722068559" lon="13.89827010702004"><ele>655.4285714285713</ele><time>2026-04-10T15:16:25Z</time></trkpt><trkpt lat="45.644161204116166" lon="13.898286938856197"><ele>657.1428571428571</ele><time>2026-04-10T15:16:32Z</time></trkpt><trkpt lat="45.64410214087357" lon="13.898335503133422"><ele>658.8571428571429</ele><time>2026-04-10T15:16:39Z</time></trkpt><trkpt lat="45.64403691982733" lon="13.898368619401156"><ele>660.5714285714287</ele><time>2026-04-10T15:16:45Z</time></trkpt><trkpt lat="45.643977215137156" lon="13.89840288151309"><ele>662.2857142857142</ele><time>2026-04-10T15:16:52Z</time></trkpt><trkpt lat="45.643916469789765" lon="13.89843056437881"><ele>664.0</ele><time>2026-04-10T15:16:57.999Z</time></trkpt><trkpt lat="45.643843429259206" lon="13.898479042540547"><ele>664.1428571428571</ele><time>2026-04-10T15:17:03.999Z</time></trkpt><trkpt lat="45.64377709569008" lon="13.898507179394079"><ele>664.2857142857143</ele><time>2026-04-10T15:17:09.999Z</time></trkpt><trkpt lat="45.64371588027916" lon="13.89858297660569"><ele>664.4285714285714</ele><time>2026-04-10T15:17:16.999Z</time></trkpt><trkpt lat="45.643677892093706" lon="13.898655953459045"><ele>664.5714285714286</ele><time>2026-04-10T15:17:20.999Z</time></trkpt><trkpt lat="45.6436507986681" lon="13.89874415019212"><ele>664.7142857142858</ele><time>2026-04-10T15:17:25.999Z</time></trkpt><trkpt lat="45.64362352613088" lon="13.898827725163349"><ele>664.8571428571429</ele><time>2026-04-10T15:17:29.999Z</time></trkpt><trkpt lat="45.643588239638895" lon="13.898924146448868"><ele>665.0</ele><time>2026-04-10T15:17:33.999Z</time></trkpt><trkpt lat="45.64358331233496" lon="13.899015167077373"><ele>665.4285714285714</ele><time>2026-04-10T15:17:37.999Z</time></trkpt><trkpt lat="45.64359312174109" lon="13.899104474225291"><ele>665.8571428571429</ele><time>2026-04-10T15:17:41.999Z</time></trkpt><trkpt lat="45.643618957626266" lon="13.89920687124613"><ele>666.2857142857142</ele><time>2026-04-10T15:17:46.999Z</time></trkpt><trkpt lat="45.64366889170405" lon="13.899281824542298"><ele>666.7142857142858</ele><time>2026-04-10T15:17:51.999Z</time></trkpt><trkpt lat="45.6437127995898" lon="13.899368036954233"><ele>667.1428571428571</ele><time>2026-04-10T15:17:56.999Z</time></trkpt><trkpt lat="45.64374975312472" lon="13.899443203597688"><ele>667.5714285714286</ele><time>2026-04-10T15:18:00.999Z</time></trkpt><trkpt lat="45.643790066509915" lon="13.899520916923025"><ele>668.0</ele><time>2026-04-10T15:18:06Z</time></trkpt><trkpt lat="45.64384378476085" lon="13.899595739293273"><ele>668.0</ele><time>2026-04-10T15:18:11Z</time></trkpt><trkpt lat="45.64389027411958" lon="13.899657959920875"><ele>668.0</ele><time>2026-04-10T15:18:16Z</time></trkpt><trkpt lat="45.643952170769346" lon="13.899707585498565"><ele>668.0</ele><time>2026-04-10T15:18:21Z</time></trkpt><trkpt lat="45.64402209086563" lon="13.89975815419733"><ele>668.0</ele><time>2026-04-10T15:18:25.999Z</time></trkpt><trkpt lat="45.64408496081061" lon="13.899797387430038"><ele>668.0</ele><time>2026-04-10T15:18:30.999Z</time></trkpt><trkpt lat="45.64414470040206" lon="13.899862495095677"><ele>668.0</ele><time>2026-04-10T15:18:35.999Z</time></trkpt><trkpt lat="45.64420447686132" lon="13.899911585998476"><ele>668.0</ele><time>2026-04-10T15:18:40.999Z</time></trkpt><trkpt lat="45.64426406861547" lon="13.89996447014926"><ele>668.0</ele><time>2026-04-10T15:18:45.999Z</time></trkpt><trkpt lat="45.64433007387703" lon="13.900004538626922"><ele>668.0</ele><time>2026-04-10T15:18:50.999Z</time></trkpt><trkpt lat="45.64438930167239" lon="13.900043318758957"><ele>668.0</ele><time>2026-04-10T15:18:55.999Z</time></trkpt><trkpt lat="45.64444142077546" lon="13.89998808929418"><ele>668.0</ele><time>2026-04-10T15:19:04.999Z</time></trkpt><trkpt lat="45.64450667907254" lon="13.899948287531913"><ele>668.0</ele><time>2026-04-10T15:19:12.999Z</time></trkpt><trkpt lat="45.64448261046523" lon="13.899862708566726"><ele>668.0</ele><time>2026-04-10T15:25:16.999Z</time></trkpt><trkpt lat="45.64443734827356" lon="13.899790997127523"><ele>668.0</ele><time>2026-04-10T15:25:25.999Z</time></trkpt><trkpt lat="45.64438983541836" lon="13.899715367503363"><ele>668.0</ele><time>2026-04-10T15:25:32.999Z</time></trkpt><trkpt lat="45.64441192314178" lon="13.899803060932516"><ele>668.0</ele><time>2026-04-10T15:26:43Z</time></trkpt><trkpt lat="45.64440911713562" lon="13.899894364200366"><ele>668.0</ele><time>2026-04-10T15:26:56Z</time></trkpt><trkpt lat="45.64442821436573" lon="13.899996796624176"><ele>668.0</ele><time>2026-04-10T15:27:02Z</time></trkpt><trkpt lat="45.644362671018825" lon="13.900039876695342"><ele>668.0</ele><time>2026-04-10T15:27:08Z</time></trkpt><trkpt lat="45.64430442436122" lon="13.90000108944487"><ele>668.0</ele><time>2026-04-10T15:27:13Z</time></trkpt><trkpt lat="45.64425366859447" lon="13.89994151317728"><ele>668.0</ele><time>2026-04-10T15:27:18Z</time></trkpt><trkpt lat="45.64419641330101" lon="13.89987364834497"><ele>668.0</ele><time>2026-04-10T15:27:23.999Z</time></trkpt><trkpt lat="45.64413114304352" lon="13.899807418853124"><ele>668.0</ele><time>2026-04-10T15:27:29.999Z</time></trkpt><trkpt lat="45.64406137650583" lon="13.899761350567196"><ele>668.0</ele><time>2026-04-10T15:27:35.999Z</time></trkpt><trkpt lat="45.6439965032888" lon="13.89971374295629"><ele>668.0</ele><time>2026-04-10T15:27:41.999Z</time></trkpt><trkpt lat="45.6439395422398" lon="13.899668168938883"><ele>668.0</ele><time>2026-04-10T15:27:46.999Z</time></trkpt><trkpt lat="45.64388587775043" lon="13.899591570962084"><ele>668.0</ele><time>2026-04-10T15:27:52.999Z</time></trkpt><trkpt lat="45.643845806905624" lon="13.899522017671046"><ele>668.0</ele><time>2026-04-10T15:27:57.999Z</time></trkpt><trkpt lat="45.643797879707144" lon="13.89943847841456"><ele>668.0</ele><time>2026-04-10T15:28:02.999Z</time></trkpt><trkpt lat="45.643753664135815" lon="13.899363239109025"><ele>668.0</ele><time>2026-04-10T15:28:06.999Z</time></trkpt><trkpt lat="45.64371218823426" lon="13.899294243979643"><ele>668.0</ele><time>2026-04-10T15:28:10.999Z</time></trkpt><trkpt lat="45.64366075837036" lon="13.899229796379686"><ele>668.0</ele><time>2026-04-10T15:28:15.999Z</time></trkpt><trkpt lat="45.64362150760557" lon="13.899158312349027"><ele>668.0</ele><time>2026-04-10T15:28:20.999Z</time></trkpt><trkpt lat="45.64358840893894" lon="13.899069329923261"><ele>668.0</ele><time>2026-04-10T15:28:25.999Z</time></trkpt><trkpt lat="45.64357713636962" lon="13.898975643015731"><ele>668.0</ele><time>2026-04-10T15:28:29.999Z</time></trkpt><trkpt lat="45.643588762478174" lon="13.898882493635302"><ele>667.5714285714286</ele><time>2026-04-10T15:28:34Z</time></trkpt><trkpt lat="45.643613409697586" lon="13.898789823271267"><ele>667.1428571428571</ele><time>2026-04-10T15:28:41Z</time></trkpt><trkpt lat="45.64363589427633" lon="13.898696351938154"><ele>666.7142857142858</ele><time>2026-04-10T15:29:02Z</time></trkpt><trkpt lat="45.64366875606984" lon="13.898606961684916"><ele>666.2857142857142</ele><time>2026-04-10T15:29:09Z</time></trkpt><trkpt lat="45.64370685691335" lon="13.898532417675"><ele>665.8571428571429</ele><time>2026-04-10T15:29:15Z</time></trkpt><trkpt lat="45.64376322488363" lon="13.898485257522887"><ele>665.4285714285714</ele><time>2026-04-10T15:29:20Z</time></trkpt><trkpt lat="45.64383085641645" lon="13.89844619749466"><ele>665.0</ele><time>2026-04-10T15:29:27Z</time></trkpt><trkpt lat="45.64389707254691" lon="13.898406597685138"><ele>664.8571428571429</ele><time>2026-04-10T15:29:32Z</time></trkpt><trkpt lat="45.64397252798044" lon="13.898351135596968"><ele>664.7142857142858</ele><time>2026-04-10T15:29:40Z</time></trkpt><trkpt lat="45.64403262804869" lon="13.898317100181048"><ele>664.5714285714286</ele><time>2026-04-10T15:29:49Z</time></trkpt><trkpt lat="45.644095970490554" lon="13.898299078272304"><ele>664.4285714285714</ele><time>2026-04-10T15:29:53Z</time></trkpt><trkpt lat="45.64417349795589" lon="13.898275927084422"><ele>664.2857142857143</ele><time>2026-04-10T15:29:57Z</time></trkpt><trkpt lat="45.64423063445438" lon="13.898230973759503"><ele>664.1428571428571</ele><time>2026-04-10T15:30:01Z</time></trkpt><trkpt lat="45.644288866329276" lon="13.898191000232304"><ele>664.0</ele><time>2026-04-10T15:30:04Z</time></trkpt><trkpt lat="45.64436311936563" lon="13.898149485616075"><ele>664.0</ele><time>2026-04-10T15:30:06Z</time></trkpt><trkpt lat="45.644408906833355" lon="13.898069304163647"><ele>664.0</ele><time>2026-04-10T15:30:09Z</time></trkpt><trkpt lat="45.644470097485915" lon="13.897990523573515"><ele>664.0</ele><time>2026-04-10T15:30:12Z</time></trkpt><trkpt lat="45.64453537306411" lon="13.897908951170175"><ele>664.0</ele><time>2026-04-10T15:30:15Z</time></trkpt><trkpt lat="45.64459452893916" lon="13.897815390021888"><ele>664.0</ele><time>2026-04-10T15:30:18Z</time></trkpt><trkpt lat="45.64466331473067" lon="13.897736537569267"><ele>664.0</ele><time>2026-04-10T15:30:21Z</time></trkpt><trkpt lat="45.64472287047532" lon="13.897656009103557"><ele>662.0</ele><time>2026-04-10T15:30:24Z</time></trkpt><trkpt lat="45.6447709155577" lon="13.897563039241643"><ele>660.0</ele><time>2026-04-10T15:30:27Z</time></trkpt><trkpt lat="45.64480486412616" lon="13.897486822900891"><ele>658.0</ele><time>2026-04-10T15:30:29Z</time></trkpt><trkpt lat="45.64482393196216" lon="13.897372416301534"><ele>656.0</ele><time>2026-04-10T15:30:32Z</time></trkpt><trkpt lat="45.64481618234958" lon="13.897277986899649"><ele>654.0</ele><time>2026-04-10T15:30:34.999Z</time></trkpt><trkpt lat="45.644811896278604" lon="13.897167304805684"><ele>652.0</ele><time>2026-04-10T15:30:37.999Z</time></trkpt><trkpt lat="45.64480885992286" lon="13.897053646419648"><ele>652.0</ele><time>2026-04-10T15:30:41Z</time></trkpt><trkpt lat="45.644802191371085" lon="13.89696145022608"><ele>652.0</ele><time>2026-04-10T15:30:44Z</time></trkpt><trkpt lat="45.64482176347424" lon="13.896851748466721"><ele>652.0</ele><time>2026-04-10T15:30:48Z</time></trkpt><trkpt lat="45.644868596306786" lon="13.896777045454588"><ele>652.0</ele><time>2026-04-10T15:30:51Z</time></trkpt><trkpt lat="45.644892059494616" lon="13.896672289722272"><ele>652.0</ele><time>2026-04-10T15:30:55Z</time></trkpt><trkpt lat="45.64493562100901" lon="13.896600582052523"><ele>652.0</ele><time>2026-04-10T15:30:59Z</time></trkpt><trkpt lat="45.6449924742536" lon="13.896500077489833"><ele>652.0</ele><time>2026-04-10T15:31:07Z</time></trkpt><trkpt lat="45.64505343142538" lon="13.896476541872058"><ele>652.5714285714286</ele><time>2026-04-10T15:31:12Z</time></trkpt><trkpt lat="45.64511893508665" lon="13.896424717215469"><ele>653.1428571428571</ele><time>2026-04-10T15:31:17Z</time></trkpt><trkpt lat="45.64517358814821" lon="13.896378431798377"><ele>653.7142857142857</ele><time>2026-04-10T15:31:21Z</time></trkpt><trkpt lat="45.64523249272986" lon="13.896324325904612"><ele>654.2857142857142</ele><time>2026-04-10T15:31:26Z</time></trkpt><trkpt lat="45.64529913788584" lon="13.896287780277579"><ele>654.8571428571429</ele><time>2026-04-10T15:31:31Z</time></trkpt><trkpt lat="45.64536951102462" lon="13.896256758232747"><ele>655.4285714285713</ele><time>2026-04-10T15:31:36Z</time></trkpt><trkpt lat="45.645439491195305" lon="13.89620690034766"><ele>656.0</ele><time>2026-04-10T15:31:43Z</time></trkpt><trkpt lat="45.645501286727665" lon="13.896169557244367"><ele>652.1428571428571</ele><time>2026-04-10T15:31:49Z</time></trkpt><trkpt lat="45.64558392683308" lon="13.896155692148445"><ele>648.2857142857142</ele><time>2026-04-10T15:31:53Z</time></trkpt><trkpt lat="45.64564961314649" lon="13.896169364761931"><ele>644.4285714285713</ele><time>2026-04-10T15:31:56Z</time></trkpt><trkpt lat="45.645722048964636" lon="13.896167830699047"><ele>640.5714285714286</ele><time>2026-04-10T15:32:01Z</time></trkpt><trkpt lat="45.64579291926847" lon="13.89615914385053"><ele>636.7142857142858</ele><time>2026-04-10T15:32:05Z</time></trkpt><trkpt lat="45.64586156675832" lon="13.896159021746369"><ele>632.8571428571428</ele><time>2026-04-10T15:32:11Z</time></trkpt><trkpt lat="45.64593578805304" lon="13.896140988072485"><ele>629.0</ele><time>2026-04-10T15:32:16Z</time></trkpt><trkpt lat="45.6460064236636" lon="13.896131844343286"><ele>629.0</ele><time>2026-04-10T15:32:21.999Z</time></trkpt><trkpt lat="45.64607130907339" lon="13.896129320604281"><ele>629.0</ele><time>2026-04-10T15:32:26.999Z</time></trkpt><trkpt lat="45.64614267360475" lon="13.896123190827439"><ele>629.0</ele><time>2026-04-10T15:32:31.999Z</time></trkpt><trkpt lat="45.646199745689934" lon="13.896083244005192"><ele>629.0</ele><time>2026-04-10T15:32:36.999Z</time></trkpt><trkpt lat="45.646260129707585" lon="13.8960454677573"><ele>629.0</ele><time>2026-04-10T15:32:39.999Z</time></trkpt><trkpt lat="45.6463169253334" lon="13.895999259655321"><ele>629.0</ele><time>2026-04-10T15:32:42.999Z</time></trkpt><trkpt lat="45.646373011556776" lon="13.895915683754433"><ele>629.0</ele><time>2026-04-10T15:32:46Z</time></trkpt><trkpt lat="45.64641387658391" lon="13.89584489183826"><ele>628.0</ele><time>2026-04-10T15:32:49Z</time></trkpt><trkpt lat="45.64645799588607" lon="13.89577527596385"><ele>627.0</ele><time>2026-04-10T15:32:51Z</time></trkpt><trkpt lat="45.64653153500966" lon="13.895714050263706"><ele>626.0</ele><time>2026-04-10T15:32:54Z</time></trkpt><trkpt lat="45.64659461292019" lon="13.895647886495752"><ele>625.0</ele><time>2026-04-10T15:32:57Z</time></trkpt><trkpt lat="45.64665977181887" lon="13.895595370113309"><ele>624.0</ele><time>2026-04-10T15:32:59Z</time></trkpt><trkpt lat="45.64673647332582" lon="13.895540752715565"><ele>623.0</ele><time>2026-04-10T15:33:02Z</time></trkpt><trkpt lat="45.64680707506622" lon="13.895457955520643"><ele>623.0</ele><time>2026-04-10T15:33:05Z</time></trkpt><trkpt lat="45.64687290154939" lon="13.89537988488687"><ele>623.0</ele><time>2026-04-10T15:33:08Z</time></trkpt><trkpt lat="45.6469249850403" lon="13.89532683753107"><ele>623.0</ele><time>2026-04-10T15:33:10Z</time></trkpt><trkpt lat="45.64696126079505" lon="13.895238615486015"><ele>623.0</ele><time>2026-04-10T15:33:13Z</time></trkpt><trkpt lat="45.646993688253986" lon="13.89512545356349"><ele>623.0</ele><time>2026-04-10T15:33:16Z</time></trkpt><trkpt lat="45.64701033459195" lon="13.895024386074274"><ele>623.0</ele><time>2026-04-10T15:33:19Z</time></trkpt><trkpt lat="45.6470657339987" lon="13.894923239688518"><ele>621.4285714285714</ele><time>2026-04-10T15:33:22Z</time></trkpt><trkpt lat="45.64708360047731" lon="13.894825602295741"><ele>619.8571428571429</ele><time>2026-04-10T15:33:26Z</time></trkpt><trkpt lat="45.64708762162009" lon="13.894717097589773"><ele>618.2857142857142</ele><time>2026-04-10T15:33:33Z</time></trkpt><trkpt lat="45.64708166196493" lon="13.89461507736725"><ele>616.7142857142858</ele><time>2026-04-10T15:33:38Z</time></trkpt><trkpt lat="45.647105819243805" lon="13.894527650686902"><ele>615.1428571428571</ele><time>2026-04-10T15:33:42Z</time></trkpt><trkpt lat="45.64711342417458" lon="13.894422367027213"><ele>613.5714285714286</ele><time>2026-04-10T15:33:47Z</time></trkpt><trkpt lat="45.64712301287565" lon="13.89431154093529"><ele>612.0</ele><time>2026-04-10T15:33:52Z</time></trkpt><trkpt lat="45.647146798662725" lon="13.894210127098601"><ele>612.0</ele><time>2026-04-10T15:33:59Z</time></trkpt><trkpt lat="45.647196168446314" lon="13.89415124974759"><ele>612.0</ele><time>2026-04-10T15:34:05Z</time></trkpt><trkpt lat="45.64725847431339" lon="13.89419375548838"><ele>612.0</ele><time>2026-04-10T15:34:10Z</time></trkpt><trkpt lat="45.64731948752165" lon="13.89424895703213"><ele>612.0</ele><time>2026-04-10T15:34:15Z</time></trkpt><trkpt lat="45.647379856468156" lon="13.894300508088532"><ele>612.0</ele><time>2026-04-10T15:34:18.999Z</time></trkpt><trkpt lat="45.6474387329464" lon="13.894354865690998"><ele>612.0</ele><time>2026-04-10T15:34:22.999Z</time></trkpt><trkpt lat="45.64748779511444" lon="13.894426911839759"><ele>612.0</ele><time>2026-04-10T15:34:27.999Z</time></trkpt><trkpt lat="45.647525339148274" lon="13.894524346445735"><ele>612.0</ele><time>2026-04-10T15:34:31.999Z</time></trkpt><trkpt lat="45.6475575816779" lon="13.894611982451492"><ele>612.0</ele><time>2026-04-10T15:34:34.999Z</time></trkpt><trkpt lat="45.6476136683689" lon="13.894706958840354"><ele>612.0</ele><time>2026-04-10T15:34:37.999Z</time></trkpt><trkpt lat="45.64765062531018" lon="13.894837303831334"><ele>612.0</ele><time>2026-04-10T15:34:40.999Z</time></trkpt><trkpt lat="45.64768326627848" lon="13.8949328318452"><ele>612.0</ele><time>2026-04-10T15:34:42.999Z</time></trkpt><trkpt lat="45.64773269044481" lon="13.895007268667394"><ele>612.0</ele><time>2026-04-10T15:34:44.999Z</time></trkpt><trkpt lat="45.647763727521905" lon="13.895116849060198"><ele>611.1428571428571</ele><time>2026-04-10T15:34:47.999Z</time></trkpt><trkpt lat="45.64777189174092" lon="13.895216935665246"><ele>610.2857142857143</ele><time>2026-04-10T15:34:50.999Z</time></trkpt><trkpt lat="45.64777285225994" lon="13.895315436513535"><ele>609.4285714285714</ele><time>2026-04-10T15:34:55Z</time></trkpt><trkpt lat="45.64779038554089" lon="13.895409376232717"><ele>608.5714285714286</ele><time>2026-04-10T15:34:59Z</time></trkpt><trkpt lat="45.647853864406095" lon="13.895455308462147"><ele>607.7142857142857</ele><time>2026-04-10T15:35:06Z</time></trkpt><trkpt lat="45.64790499214607" lon="13.895376766128818"><ele>606.8571428571429</ele><time>2026-04-10T15:35:11Z</time></trkpt><trkpt lat="45.64792192935118" lon="13.895266805923136"><ele>606.0</ele><time>2026-04-10T15:35:15Z</time></trkpt><trkpt lat="45.6479344266127" lon="13.895160580075395"><ele>602.8333333333334</ele><time>2026-04-10T15:35:19Z</time></trkpt><trkpt lat="45.64793394729968" lon="13.895031287995849"><ele>599.6666666666666</ele><time>2026-04-10T15:35:22Z</time></trkpt><trkpt lat="45.64793892209997" lon="13.894900980802188"><ele>596.5</ele><time>2026-04-10T15:35:25Z</time></trkpt><trkpt lat="45.64791910402979" lon="13.894786865422933"><ele>593.3333333333333</ele><time>2026-04-10T15:35:28Z</time></trkpt><trkpt lat="45.64789929075318" lon="13.89469819495491"><ele>590.1666666666666</ele><time>2026-04-10T15:35:30Z</time></trkpt><trkpt lat="45.647895605593945" lon="13.894589201601752"><ele>587.0</ele><time>2026-04-10T15:35:32Z</time></trkpt><trkpt lat="45.64789083369907" lon="13.894492312480992"><ele>587.0</ele><time>2026-04-10T15:35:34Z</time></trkpt><trkpt lat="45.64788115818229" lon="13.89437914815222"><ele>587.0</ele><time>2026-04-10T15:35:37Z</time></trkpt><trkpt lat="45.64786737819596" lon="13.894289014729639"><ele>587.0</ele><time>2026-04-10T15:35:39Z</time></trkpt><trkpt lat="45.64785045831569" lon="13.894176216096614"><ele>587.0</ele><time>2026-04-10T15:35:42Z</time></trkpt><trkpt lat="45.647830252600556" lon="13.894083630109836"><ele>587.0</ele><time>2026-04-10T15:35:45Z</time></trkpt><trkpt lat="45.64782800017633" lon="13.893981023471211"><ele>587.0</ele><time>2026-04-10T15:35:48Z</time></trkpt><trkpt lat="45.647805791123766" lon="13.893892881960626"><ele>587.0</ele><time>2026-04-10T15:35:54Z</time></trkpt><trkpt lat="45.64777519529431" lon="13.893800703337776"><ele>586.1428571428571</ele><time>2026-04-10T15:35:59Z</time></trkpt><trkpt lat="45.64773994664469" lon="13.893707367316368"><ele>585.2857142857143</ele><time>2026-04-10T15:36:04Z</time></trkpt><trkpt lat="45.64770227023498" lon="13.893619003423153"><ele>584.4285714285714</ele><time>2026-04-10T15:36:09Z</time></trkpt><trkpt lat="45.64767444870223" lon="13.893515782687112"><ele>583.5714285714286</ele><time>2026-04-10T15:36:14Z</time></trkpt><trkpt lat="45.647702936198286" lon="13.893419706920072"><ele>582.7142857142858</ele><time>2026-04-10T15:36:20Z</time></trkpt><trkpt lat="45.647765198432545" lon="13.893479290134003"><ele>581.8571428571429</ele><time>2026-04-10T15:36:24.999Z</time></trkpt><trkpt lat="45.647814165074124" lon="13.893565511171634"><ele>581.0</ele><time>2026-04-10T15:36:30.999Z</time></trkpt><trkpt lat="45.647856453345476" lon="13.893634043848351"><ele>581.0</ele><time>2026-04-10T15:36:35.999Z</time></trkpt><trkpt lat="45.647917229981935" lon="13.893691265322724"><ele>581.0</ele><time>2026-04-10T15:36:40.999Z</time></trkpt><trkpt lat="45.64796965013388" lon="13.89375888702274"><ele>581.0</ele><time>2026-04-10T15:36:45.999Z</time></trkpt><trkpt lat="45.64802896339366" lon="13.89381865772358"><ele>581.0</ele><time>2026-04-10T15:36:49.999Z</time></trkpt><trkpt lat="45.64807878467291" lon="13.8938774474843"><ele>581.0</ele><time>2026-04-10T15:36:54.999Z</time></trkpt><trkpt lat="45.648132711320216" lon="13.893937090335742"><ele>581.0</ele><time>2026-04-10T15:36:59Z</time></trkpt><trkpt lat="45.64818562353346" lon="13.893993505891594"><ele>581.0</ele><time>2026-04-10T15:37:03Z</time></trkpt><trkpt lat="45.64823695627775" lon="13.894063626546307"><ele>581.0</ele><time>2026-04-10T15:37:08Z</time></trkpt><trkpt lat="45.648268648667674" lon="13.894173497086898"><ele>581.0</ele><time>2026-04-10T15:37:12Z</time></trkpt><trkpt lat="45.64832565806386" lon="13.894269268933803"><ele>581.0</ele><time>2026-04-10T15:37:15Z</time></trkpt><trkpt lat="45.6483935042325" lon="13.89435386874224"><ele>581.0</ele><time>2026-04-10T15:37:18Z</time></trkpt><trkpt lat="45.648433023108105" lon="13.894427882375116"><ele>581.0</ele><time>2026-04-10T15:37:20Z</time></trkpt><trkpt lat="45.6484790618187" lon="13.8945039661361"><ele>581.0</ele><time>2026-04-10T15:37:22Z</time></trkpt><trkpt lat="45.648528263582456" lon="13.894594291797876"><ele>581.8571428571429</ele><time>2026-04-10T15:37:24Z</time></trkpt><trkpt lat="45.6485754734104" lon="13.894670717071728"><ele>582.7142857142858</ele><time>2026-04-10T15:37:26Z</time></trkpt><trkpt lat="45.648620919735336" lon="13.894788322867335"><ele>583.5714285714286</ele><time>2026-04-10T15:37:29Z</time></trkpt><trkpt lat="45.64864713389747" lon="13.894873178373702"><ele>584.4285714285714</ele><time>2026-04-10T15:37:31Z</time></trkpt><trkpt lat="45.648665877091275" lon="13.894965689641056"><ele>585.2857142857143</ele><time>2026-04-10T15:37:34Z</time></trkpt><trkpt lat="45.648684943919044" lon="13.89506400289905"><ele>586.1428571428571</ele><time>2026-04-10T15:37:39Z</time></trkpt><trkpt lat="45.648704802696486" lon="13.895153362893838"><ele>587.0</ele><time>2026-04-10T15:37:44Z</time></trkpt><trkpt lat="45.64871156239521" lon="13.895247213757736"><ele>583.8571428571429</ele><time>2026-04-10T15:37:48Z</time></trkpt><trkpt lat="45.6487761579428" lon="13.895285250992275"><ele>580.7142857142858</ele><time>2026-04-10T15:37:56Z</time></trkpt><trkpt lat="45.64881689233495" lon="13.895212511658736"><ele>577.5714285714286</ele><time>2026-04-10T15:38:01Z</time></trkpt><trkpt lat="45.64884379592051" lon="13.895123088706251"><ele>574.4285714285714</ele><time>2026-04-10T15:38:06Z</time></trkpt><trkpt lat="45.64886379518068" lon="13.895024699021924"><ele>571.2857142857142</ele><time>2026-04-10T15:38:11Z</time></trkpt><trkpt lat="45.64889174633659" lon="13.894936401576903"><ele>568.1428571428571</ele><time>2026-04-10T15:38:16Z</time></trkpt><trkpt lat="45.648903039693636" lon="13.89484182244587"><ele>565.0</ele><time>2026-04-10T15:38:21Z</time></trkpt><trkpt lat="45.64891855339531" lon="13.894750936360927"><ele>564.9999999999999</ele><time>2026-04-10T15:38:26Z</time></trkpt><trkpt lat="45.64892079412779" lon="13.894658758144534"><ele>565.0</ele><time>2026-04-10T15:38:30Z</time></trkpt><trkpt lat="45.64891505574058" lon="13.894556082306204"><ele>565.0</ele><time>2026-04-10T15:38:34.999Z</time></trkpt><trkpt lat="45.6489138629092" lon="13.894456273959618"><ele>565.0</ele><time>2026-04-10T15:38:39.999Z</time></trkpt><trkpt lat="45.648913925808" lon="13.894350939508632"><ele>565.0</ele><time>2026-04-10T15:38:45.999Z</time></trkpt><trkpt lat="45.64889786961288" lon="13.894245446697841"><ele>564.9999999999999</ele><time>2026-04-10T15:38:51.999Z</time></trkpt><trkpt lat="45.648877375078506" lon="13.894140076138042"><ele>565.0</ele><time>2026-04-10T15:38:56.999Z</time></trkpt><trkpt lat="45.64886813801726" lon="13.894040896020437"><ele>564.1666666666667</ele><time>2026-04-10T15:39:02Z</time></trkpt><trkpt lat="45.648845143719846" lon="13.89393568726895"><ele>563.3333333333334</ele><time>2026-04-10T15:39:08Z</time></trkpt><trkpt lat="45.64881901544855" lon="13.893830659557475"><ele>562.5</ele><time>2026-04-10T15:39:12Z</time></trkpt><trkpt lat="45.6487923524932" lon="13.893731116782925"><ele>561.6666666666666</ele><time>2026-04-10T15:39:16Z</time></trkpt><trkpt lat="45.64877827202666" lon="13.89363008691861"><ele>560.8333333333333</ele><time>2026-04-10T15:39:22Z</time></trkpt><trkpt lat="45.64881009780538" lon="13.89353833638224"><ele>560.0</ele><time>2026-04-10T15:39:26Z</time></trkpt><trkpt lat="45.6488892563273" lon="13.893566223153051"><ele>560.0</ele><time>2026-04-10T15:39:32Z</time></trkpt><trkpt lat="45.64894961920644" lon="13.893637486042133"><ele>560.0</ele><time>2026-04-10T15:39:37Z</time></trkpt><trkpt lat="45.648988552538235" lon="13.893711949651271"><ele>560.0</ele><time>2026-04-10T15:39:41Z</time></trkpt><trkpt lat="45.649002219244316" lon="13.89380693269936"><ele>560.0</ele><time>2026-04-10T15:39:45Z</time></trkpt><trkpt lat="45.64904739893052" lon="13.893905459207543"><ele>560.0</ele><time>2026-04-10T15:39:50Z</time></trkpt><trkpt lat="45.64909355099368" lon="13.893993768903606"><ele>560.0</ele><time>2026-04-10T15:39:55Z</time></trkpt><trkpt lat="45.64913328258697" lon="13.894088014406988"><ele>560.0</ele><time>2026-04-10T15:40:00Z</time></trkpt><trkpt lat="45.6491625144974" lon="13.894171934692833"><ele>560.7142857142857</ele><time>2026-04-10T15:40:04Z</time></trkpt><trkpt lat="45.649203056912356" lon="13.894262261935578"><ele>561.4285714285714</ele><time>2026-04-10T15:40:09Z</time></trkpt><trkpt lat="45.64924004108227" lon="13.894352138426314"><ele>562.1428571428571</ele><time>2026-04-10T15:40:14Z</time></trkpt><trkpt lat="45.64926849811024" lon="13.894444261566735"><ele>562.8571428571429</ele><time>2026-04-10T15:40:19Z</time></trkpt><trkpt lat="45.649290648523326" lon="13.89453115821337"><ele>563.5714285714286</ele><time>2026-04-10T15:40:23Z</time></trkpt><trkpt lat="45.64931882086926" lon="13.894629149632461"><ele>564.2857142857142</ele><time>2026-04-10T15:40:27Z</time></trkpt><trkpt lat="45.64935512683519" lon="13.894719787958365"><ele>565.0</ele><time>2026-04-10T15:40:30Z</time></trkpt><trkpt lat="45.649389170429934" lon="13.894815539229246"><ele>565.0</ele><time>2026-04-10T15:40:33Z</time></trkpt><trkpt lat="45.64942458631574" lon="13.89493105221637"><ele>565.0</ele><time>2026-04-10T15:40:36Z</time></trkpt><trkpt lat="45.64947333062719" lon="13.89502997552631"><ele>565.0</ele><time>2026-04-10T15:40:39Z</time></trkpt><trkpt lat="45.64951089543448" lon="13.895108538917954"><ele>565.0</ele><time>2026-04-10T15:40:42Z</time></trkpt><trkpt lat="45.649543618738996" lon="13.89520430564765"><ele>565.0</ele><time>2026-04-10T15:40:46.999Z</time></trkpt><trkpt lat="45.64956403492243" lon="13.895302165892215"><ele>565.0</ele><time>2026-04-10T15:40:51.999Z</time></trkpt><trkpt lat="45.64963729432727" lon="13.895301265393838"><ele>561.8571428571428</ele><time>2026-04-10T15:40:57.999Z</time></trkpt><trkpt lat="45.64968564103372" lon="13.895214867121956"><ele>558.7142857142857</ele><time>2026-04-10T15:41:02.999Z</time></trkpt><trkpt lat="45.64971206334786" lon="13.89512919902341"><ele>555.5714285714286</ele><time>2026-04-10T15:41:08Z</time></trkpt><trkpt lat="45.64972050535905" lon="13.895035905596416"><ele>552.4285714285713</ele><time>2026-04-10T15:41:12Z</time></trkpt><trkpt lat="45.64974204313799" lon="13.894940158659297"><ele>549.2857142857142</ele><time>2026-04-10T15:41:16Z</time></trkpt><trkpt lat="45.649748601018594" lon="13.894837843323185"><ele>546.1428571428571</ele><time>2026-04-10T15:41:21Z</time></trkpt><trkpt lat="45.64974384715891" lon="13.894735382430275"><ele>543.0</ele><time>2026-04-10T15:41:24Z</time></trkpt><trkpt lat="45.6497583267555" lon="13.894645651922994"><ele>543.0</ele><time>2026-04-10T15:41:29Z</time></trkpt><trkpt lat="45.64976315593484" lon="13.89453279723881"><ele>543.0</ele><time>2026-04-10T15:41:34Z</time></trkpt><trkpt lat="45.649760577306445" lon="13.894427675099356"><ele>543.0</ele><time>2026-04-10T15:41:39Z</time></trkpt><trkpt lat="45.64975663698657" lon="13.894326541947153"><ele>543.0</ele><time>2026-04-10T15:41:43Z</time></trkpt><trkpt lat="45.64977086892174" lon="13.894222784600325"><ele>543.0</ele><time>2026-04-10T15:41:48Z</time></trkpt><trkpt lat="45.64976650223718" lon="13.894111430758437"><ele>543.0</ele><time>2026-04-10T15:41:53Z</time></trkpt><trkpt lat="45.64976424984434" lon="13.894008464174545"><ele>543.0</ele><time>2026-04-10T15:41:58Z</time></trkpt><trkpt lat="45.64975528691028" lon="13.893918185302505"><ele>542.8333333333334</ele><time>2026-04-10T15:42:01Z</time></trkpt><trkpt lat="45.64974092585417" lon="13.893828316273572"><ele>542.6666666666666</ele><time>2026-04-10T15:42:04Z</time></trkpt><trkpt lat="45.64973374418536" lon="13.89373081575529"><ele>542.5</ele><time>2026-04-10T15:42:07Z</time></trkpt><trkpt lat="45.649722655535776" lon="13.893642013658079"><ele>542.3333333333333</ele><time>2026-04-10T15:42:09Z</time></trkpt><trkpt lat="45.649705529095435" lon="13.893505834878416"><ele>542.1666666666666</ele><time>2026-04-10T15:42:12Z</time></trkpt><trkpt lat="45.64971271337667" lon="13.893383616073098"><ele>542.0</ele><time>2026-04-10T15:42:15Z</time></trkpt><trkpt lat="45.64969801981135" lon="13.893255641176559"><ele>540.0</ele><time>2026-04-10T15:42:18Z</time></trkpt><trkpt lat="45.64970276190268" lon="13.893154510264116"><ele>538.0</ele><time>2026-04-10T15:42:20Z</time></trkpt><trkpt lat="45.649678541196295" lon="13.893047326231013"><ele>536.0</ele><time>2026-04-10T15:42:23Z</time></trkpt><trkpt lat="45.64967595442941" lon="13.892941939926384"><ele>534.0</ele><time>2026-04-10T15:42:26Z</time></trkpt><trkpt lat="45.64967736741058" lon="13.892836997479586"><ele>532.0</ele><time>2026-04-10T15:42:29Z</time></trkpt><trkpt lat="45.649681807885784" lon="13.892746975739213"><ele>530.0</ele><time>2026-04-10T15:42:31Z</time></trkpt><trkpt lat="45.64966710936416" lon="13.892606688177686"><ele>528.9999999999999</ele><time>2026-04-10T15:42:34Z</time></trkpt><trkpt lat="45.64965391082728" lon="13.89251363533789"><ele>528.0</ele><time>2026-04-10T15:42:36Z</time></trkpt><trkpt lat="45.649650944470295" lon="13.892416395829772"><ele>527.0</ele><time>2026-04-10T15:42:40Z</time></trkpt><trkpt lat="45.649648783705885" lon="13.892322826987844"><ele>526.0</ele><time>2026-04-10T15:42:45Z</time></trkpt><trkpt lat="45.64963781759276" lon="13.89222610716228"><ele>525.0</ele><time>2026-04-10T15:42:49Z</time></trkpt><trkpt lat="45.64964864717474" lon="13.892126683110469"><ele>523.9999999999999</ele><time>2026-04-10T15:42:53Z</time></trkpt><trkpt lat="45.64965193856122" lon="13.89201762469389"><ele>523.0</ele><time>2026-04-10T15:42:56.999Z</time></trkpt><trkpt lat="45.64964394032876" lon="13.891927620411774"><ele>522.9999999999999</ele><time>2026-04-10T15:43:01.999Z</time></trkpt><trkpt lat="45.64965683015715" lon="13.891819572162877"><ele>523.0</ele><time>2026-04-10T15:43:06.999Z</time></trkpt><trkpt lat="45.649654785228336" lon="13.891726076781081"><ele>523.0</ele><time>2026-04-10T15:43:11.999Z</time></trkpt><trkpt lat="45.64965561200914" lon="13.891631543075578"><ele>523.0</ele><time>2026-04-10T15:43:17Z</time></trkpt><trkpt lat="45.649644492163105" lon="13.891528595916997"><ele>523.0</ele><time>2026-04-10T15:43:23Z</time></trkpt><trkpt lat="45.64964153667687" lon="13.891427614234475"><ele>522.9999999999999</ele><time>2026-04-10T15:43:28Z</time></trkpt><trkpt lat="45.649634131320475" lon="13.891319202811223"><ele>523.0</ele><time>2026-04-10T15:43:33Z</time></trkpt><trkpt lat="45.64962724832639" lon="13.891217942827275"><ele>522.1428571428571</ele><time>2026-04-10T15:43:38Z</time></trkpt><trkpt lat="45.649614546254305" lon="13.891110862324105"><ele>521.2857142857142</ele><time>2026-04-10T15:43:42Z</time></trkpt><trkpt lat="45.6496010754785" lon="13.891021345553316"><ele>520.4285714285714</ele><time>2026-04-10T15:43:47Z</time></trkpt><trkpt lat="45.649595502516625" lon="13.890915851804653"><ele>519.5714285714286</ele><time>2026-04-10T15:43:52Z</time></trkpt><trkpt lat="45.64958337672949" lon="13.89082314452883"><ele>518.7142857142858</ele><time>2026-04-10T15:43:56Z</time></trkpt><trkpt lat="45.64957823641296" lon="13.89073132078691"><ele>517.8571428571429</ele><time>2026-04-10T15:44:01Z</time></trkpt><trkpt lat="45.64955559337403" lon="13.890629036941686"><ele>517.0</ele><time>2026-04-10T15:44:06Z</time></trkpt><trkpt lat="45.64955279635603" lon="13.890534206023645"><ele>516.0</ele><time>2026-04-10T15:44:11Z</time></trkpt><trkpt lat="45.64953914934331" lon="13.890435335481493"><ele>515.0</ele><time>2026-04-10T15:44:15Z</time></trkpt><trkpt lat="45.64951305195528" lon="13.890326101787712"><ele>514.0</ele><time>2026-04-10T15:44:20Z</time></trkpt><trkpt lat="45.64950542803405" lon="13.890217338944517"><ele>513.0</ele><time>2026-04-10T15:44:25Z</time></trkpt><trkpt lat="45.649486499022196" lon="13.890114298906257"><ele>512.0</ele><time>2026-04-10T15:44:31Z</time></trkpt><trkpt lat="45.64946485452443" lon="13.890006202190023"><ele>511.0</ele><time>2026-04-10T15:44:36Z</time></trkpt><trkpt lat="45.64944003667656" lon="13.889902156288938"><ele>511.0</ele><time>2026-04-10T15:44:41Z</time></trkpt><trkpt lat="45.64941923487525" lon="13.889793319767225"><ele>511.0</ele><time>2026-04-10T15:44:47Z</time></trkpt><trkpt lat="45.64939203758389" lon="13.889689035232072"><ele>511.0</ele><time>2026-04-10T15:44:52Z</time></trkpt><trkpt lat="45.64936331903737" lon="13.889601149689899"><ele>511.0</ele><time>2026-04-10T15:44:56Z</time></trkpt><trkpt lat="45.64931856316392" lon="13.889507260226674"><ele>511.0</ele><time>2026-04-10T15:45:02Z</time></trkpt><trkpt lat="45.649266326660495" lon="13.889437121837785"><ele>511.0</ele><time>2026-04-10T15:45:06Z</time></trkpt><trkpt lat="45.64921918477036" lon="13.889372777979213"><ele>511.0</ele><time>2026-04-10T15:45:10Z</time></trkpt><trkpt lat="45.64916133165264" lon="13.889314212526312"><ele>511.0</ele><time>2026-04-10T15:45:15Z</time></trkpt><trkpt lat="45.64909222930863" lon="13.889278462073424"><ele>511.0</ele><time>2026-04-10T15:45:18.999Z</time></trkpt><trkpt lat="45.64903479252635" lon="13.889217680972955"><ele>511.0</ele><time>2026-04-10T15:45:24Z</time></trkpt><trkpt lat="45.64900881661725" lon="13.889121688344897"><ele>511.0</ele><time>2026-04-10T15:45:29Z</time></trkpt><trkpt lat="45.64903823449962" lon="13.889022617868639"><ele>511.0</ele><time>2026-04-10T15:45:34Z</time></trkpt><trkpt lat="45.649058568526875" lon="13.888915130479056"><ele>511.0</ele><time>2026-04-10T15:45:39Z</time></trkpt><trkpt lat="45.64906768130644" lon="13.888816770719718"><ele>511.0</ele><time>2026-04-10T15:45:43Z</time></trkpt><trkpt lat="45.6490497505412" lon="13.888725594717855"><ele>508.1666666666667</ele><time>2026-04-10T15:45:47Z</time></trkpt><trkpt lat="45.64901897333701" lon="13.888638175971723"><ele>505.33333333333337</ele><time>2026-04-10T15:45:51Z</time></trkpt><trkpt lat="45.64898677278422" lon="13.888536052092666"><ele>502.5</ele><time>2026-04-10T15:45:55Z</time></trkpt><trkpt lat="45.64894734252904" lon="13.888450956920204"><ele>499.66666666666663</ele><time>2026-04-10T15:45:58Z</time></trkpt><trkpt lat="45.648913356092905" lon="13.888356193325487"><ele>496.8333333333333</ele><time>2026-04-10T15:46:01Z</time></trkpt><trkpt lat="45.648872325265565" lon="13.888279430690648"><ele>494.0</ele><time>2026-04-10T15:46:03Z</time></trkpt><trkpt lat="45.64884292605823" lon="13.888156821458125"><ele>492.7142857142857</ele><time>2026-04-10T15:46:06Z</time></trkpt><trkpt lat="45.648791020799585" lon="13.888067945553974"><ele>491.42857142857144</ele><time>2026-04-10T15:46:09Z</time></trkpt><trkpt lat="45.64875832902722" lon="13.887979693340295"><ele>490.14285714285717</ele><time>2026-04-10T15:46:12Z</time></trkpt><trkpt lat="45.64872593826099" lon="13.887894446511984"><ele>488.8571428571429</ele><time>2026-04-10T15:46:16Z</time></trkpt><trkpt lat="45.64868589189348" lon="13.887823036474856"><ele>487.57142857142856</ele><time>2026-04-10T15:46:20Z</time></trkpt><trkpt lat="45.64863391843347" lon="13.887748625893394"><ele>486.28571428571433</ele><time>2026-04-10T15:46:25Z</time></trkpt><trkpt lat="45.6485886499079" lon="13.88767428930916"><ele>485.00000000000006</ele><time>2026-04-10T15:46:30Z</time></trkpt><trkpt lat="45.64853968491232" lon="13.88760144195764"><ele>482.7142857142858</ele><time>2026-04-10T15:46:35Z</time></trkpt><trkpt lat="45.64849304997414" lon="13.88753679990117"><ele>480.42857142857144</ele><time>2026-04-10T15:46:39Z</time></trkpt><trkpt lat="45.64844791794094" lon="13.88747304317374"><ele>478.14285714285717</ele><time>2026-04-10T15:46:43Z</time></trkpt><trkpt lat="45.6483992478276" lon="13.88740812768416"><ele>475.8571428571429</ele><time>2026-04-10T15:46:47Z</time></trkpt><trkpt lat="45.64834492974342" lon="13.887328257684356"><ele>473.57142857142856</ele><time>2026-04-10T15:46:52Z</time></trkpt><trkpt lat="45.64831994855463" lon="13.887243170767645"><ele>471.2857142857143</ele><time>2026-04-10T15:46:56Z</time></trkpt><trkpt lat="45.64831797979998" lon="13.887153145027055"><ele>469.0</ele><time>2026-04-10T15:47:00Z</time></trkpt><trkpt lat="45.648329168545125" lon="13.887050380959863"><ele>469.0</ele><time>2026-04-10T15:47:05Z</time></trkpt><trkpt lat="45.64834310899843" lon="13.886951321075703"><ele>469.0</ele><time>2026-04-10T15:47:10Z</time></trkpt><trkpt lat="45.64839830994033" lon="13.886876013976325"><ele>469.0</ele><time>2026-04-10T15:47:15Z</time></trkpt><trkpt lat="45.64845676449244" lon="13.886841967780787"><ele>469.0</ele><time>2026-04-10T15:47:19Z</time></trkpt><trkpt lat="45.648513726047206" lon="13.886800448530778"><ele>469.0</ele><time>2026-04-10T15:47:23Z</time></trkpt><trkpt lat="45.64856681519353" lon="13.886751792873515"><ele>469.0</ele><time>2026-04-10T15:47:27Z</time></trkpt><trkpt lat="45.648622976751135" lon="13.886676620238362"><ele>469.0</ele><time>2026-04-10T15:47:32Z</time></trkpt><trkpt lat="45.64866374432275" lon="13.886595014019052"><ele>466.42857142857144</ele><time>2026-04-10T15:47:37Z</time></trkpt><trkpt lat="45.64870331381599" lon="13.886510316525486"><ele>463.8571428571429</ele><time>2026-04-10T15:47:42Z</time></trkpt><trkpt lat="45.648744341545374" lon="13.886427305961634"><ele>461.2857142857143</ele><time>2026-04-10T15:47:47Z</time></trkpt><trkpt lat="45.64879493819106" lon="13.88634625459426"><ele>458.7142857142857</ele><time>2026-04-10T15:47:51.999Z</time></trkpt><trkpt lat="45.64884290185729" lon="13.886259545069759"><ele>456.14285714285717</ele><time>2026-04-10T15:47:56.999Z</time></trkpt><trkpt lat="45.648894575027946" lon="13.886177786391817"><ele>453.57142857142856</ele><time>2026-04-10T15:48:01.999Z</time></trkpt><trkpt lat="45.64892259165949" lon="13.886075834001453"><ele>451.0</ele><time>2026-04-10T15:48:06.999Z</time></trkpt><trkpt lat="45.64897075594826" lon="13.885997478379776"><ele>451.0</ele><time>2026-04-10T15:48:10.999Z</time></trkpt><trkpt lat="45.649018830369116" lon="13.885931456681481"><ele>451.0</ele><time>2026-04-10T15:48:14.999Z</time></trkpt><trkpt lat="45.64906288506967" lon="13.885851530619917"><ele>451.0</ele><time>2026-04-10T15:48:18.999Z</time></trkpt><trkpt lat="45.64910838643154" lon="13.885772667011922"><ele>451.0</ele><time>2026-04-10T15:48:22.999Z</time></trkpt><trkpt lat="45.64915930289178" lon="13.885703457603382"><ele>451.0</ele><time>2026-04-10T15:48:27.999Z</time></trkpt><trkpt lat="45.64922509595208" lon="13.885660823352968"><ele>451.0</ele><time>2026-04-10T15:48:32.999Z</time></trkpt><trkpt lat="45.64928698659162" lon="13.885608992867066"><ele>451.0</ele><time>2026-04-10T15:48:37.999Z</time></trkpt><trkpt lat="45.64934701901108" lon="13.885540282311412"><ele>450.33333333333337</ele><time>2026-04-10T15:48:42.999Z</time></trkpt><trkpt lat="45.64939554828507" lon="13.885464409869007"><ele>449.6666666666667</ele><time>2026-04-10T15:48:47.999Z</time></trkpt><trkpt lat="45.64943800597953" lon="13.885369681624411"><ele>449.0</ele><time>2026-04-10T15:48:52.999Z</time></trkpt><trkpt lat="45.649472171218584" lon="13.885271341802257"><ele>448.33333333333337</ele><time>2026-04-10T15:48:57.999Z</time></trkpt><trkpt lat="45.64949129123282" lon="13.88516826588543"><ele>447.6666666666667</ele><time>2026-04-10T15:49:02.999Z</time></trkpt><trkpt lat="45.64953428432341" lon="13.885075866421786"><ele>447.0</ele><time>2026-04-10T15:49:07.999Z</time></trkpt><trkpt lat="45.64958098639705" lon="13.88498820863761"><ele>444.1666666666667</ele><time>2026-04-10T15:49:12.999Z</time></trkpt><trkpt lat="45.64962842458073" lon="13.884908265480943"><ele>441.33333333333337</ele><time>2026-04-10T15:49:17.999Z</time></trkpt><trkpt lat="45.649673856298456" lon="13.884816731821461"><ele>438.5</ele><time>2026-04-10T15:49:22.999Z</time></trkpt><trkpt lat="45.64972225627617" lon="13.884729746486029"><ele>435.6666666666667</ele><time>2026-04-10T15:49:27.999Z</time></trkpt><trkpt lat="45.64976673401619" lon="13.884663977063777"><ele>432.83333333333337</ele><time>2026-04-10T15:49:31.999Z</time></trkpt><trkpt lat="45.64982298447944" lon="13.884581921083061"><ele>430.0</ele><time>2026-04-10T15:49:36.999Z</time></trkpt><trkpt lat="45.64987201949378" lon="13.884498056673907"><ele>430.0</ele><time>2026-04-10T15:49:41.999Z</time></trkpt><trkpt lat="45.64992907391927" lon="13.884420288609375"><ele>430.0</ele><time>2026-04-10T15:49:46.999Z</time></trkpt><trkpt lat="45.649989891749065" lon="13.884356002702935"><ele>430.0</ele><time>2026-04-10T15:49:51.999Z</time></trkpt><trkpt lat="45.65005605801808" lon="13.884302006384978"><ele>430.0</ele><time>2026-04-10T15:49:56.999Z</time></trkpt><trkpt lat="45.6501153509102" lon="13.884265736876808"><ele>430.0</ele><time>2026-04-10T15:50:00.999Z</time></trkpt><trkpt lat="45.650188918722236" lon="13.88423724487705"><ele>430.0</ele><time>2026-04-10T15:50:05.999Z</time></trkpt><trkpt lat="45.650247009107176" lon="13.884201367430178"><ele>430.0</ele><time>2026-04-10T15:50:09.999Z</time></trkpt><trkpt lat="45.65031432145903" lon="13.884152895190976"><ele>429.2857142857143</ele><time>2026-04-10T15:50:14.999Z</time></trkpt><trkpt lat="45.65036654262512" lon="13.884100661022416"><ele>428.5714285714286</ele><time>2026-04-10T15:50:18.999Z</time></trkpt><trkpt lat="45.6504206898458" lon="13.884028920925484"><ele>427.8571428571429</ele><time>2026-04-10T15:50:23.999Z</time></trkpt><trkpt lat="45.65047393874543" lon="13.883959559048478"><ele>427.1428571428571</ele><time>2026-04-10T15:50:28.999Z</time></trkpt><trkpt lat="45.65053044397778" lon="13.883906203196904"><ele>426.42857142857144</ele><time>2026-04-10T15:50:32.999Z</time></trkpt><trkpt lat="45.65057433993843" lon="13.883840859213274"><ele>425.7142857142857</ele><time>2026-04-10T15:50:36.999Z</time></trkpt><trkpt lat="45.650616957529294" lon="13.883747983032576"><ele>425.0</ele><time>2026-04-10T15:50:41.999Z</time></trkpt><trkpt lat="45.65065121906877" lon="13.883661597656593"><ele>425.0</ele><time>2026-04-10T15:50:46.999Z</time></trkpt><trkpt lat="45.650705375835315" lon="13.883582594233518"><ele>425.0</ele><time>2026-04-10T15:50:51.999Z</time></trkpt><trkpt lat="45.65075286957121" lon="13.883500261057605"><ele>425.0</ele><time>2026-04-10T15:50:56.999Z</time></trkpt><trkpt lat="45.650814918203295" lon="13.883468787356545"><ele>425.0</ele><time>2026-04-10T15:51:00.999Z</time></trkpt><trkpt lat="45.65086823948002" lon="13.883416064259627"><ele>425.0</ele><time>2026-04-10T15:51:04.999Z</time></trkpt><trkpt lat="45.650930314704304" lon="13.88334472661811"><ele>425.0</ele><time>2026-04-10T15:51:09.999Z</time></trkpt><trkpt lat="45.65097809979089" lon="13.88326491646332"><ele>425.0</ele><time>2026-04-10T15:51:14.999Z</time></trkpt><trkpt lat="45.65102532310977" lon="13.883165121021495"><ele>424.2857142857143</ele><time>2026-04-10T15:51:20.999Z</time></trkpt><trkpt lat="45.651056241231736" lon="13.883064922237491"><ele>423.57142857142856</ele><time>2026-04-10T15:51:25.999Z</time></trkpt><trkpt lat="45.65110290988974" lon="13.882973181794725"><ele>422.8571428571429</ele><time>2026-04-10T15:51:30.999Z</time></trkpt><trkpt lat="45.651147068646516" lon="13.882899750105041"><ele>422.1428571428571</ele><time>2026-04-10T15:51:34.999Z</time></trkpt><trkpt lat="45.65119020075644" lon="13.882832404875924"><ele>421.42857142857144</ele><time>2026-04-10T15:51:39Z</time></trkpt><trkpt lat="45.65124540637831" lon="13.882758141854442"><ele>420.7142857142857</ele><time>2026-04-10T15:51:44Z</time></trkpt><trkpt lat="45.651307097178176" lon="13.882707470628748"><ele>420.0</ele><time>2026-04-10T15:51:49Z</time></trkpt><trkpt lat="45.651354182860786" lon="13.882632644349343"><ele>419.2857142857143</ele><time>2026-04-10T15:51:54Z</time></trkpt><trkpt lat="45.65139273091067" lon="13.882545912831565"><ele>418.57142857142856</ele><time>2026-04-10T15:51:59Z</time></trkpt><trkpt lat="45.651435568333504" lon="13.882458198723674"><ele>417.8571428571429</ele><time>2026-04-10T15:52:04Z</time></trkpt><trkpt lat="45.65149719935047" lon="13.882396597647569"><ele>417.1428571428571</ele><time>2026-04-10T15:52:08.999Z</time></trkpt><trkpt lat="45.65154361174282" lon="13.882334010838218"><ele>416.42857142857144</ele><time>2026-04-10T15:52:12.999Z</time></trkpt><trkpt lat="45.65158810326423" lon="13.882250364993066"><ele>415.7142857142857</ele><time>2026-04-10T15:52:17.999Z</time></trkpt><trkpt lat="45.6516160805837" lon="13.882163937268853"><ele>415.0</ele><time>2026-04-10T15:52:22.999Z</time></trkpt><trkpt lat="45.65163402151774" lon="13.882064076860907"><ele>415.0</ele><time>2026-04-10T15:52:27.999Z</time></trkpt><trkpt lat="45.65166877535745" lon="13.88196529290148"><ele>415.0</ele><time>2026-04-10T15:52:32.999Z</time></trkpt><trkpt lat="45.65171249528032" lon="13.881897478838255"><ele>415.0</ele><time>2026-04-10T15:52:36.999Z</time></trkpt><trkpt lat="45.651770773291766" lon="13.881823831470587"><ele>415.0</ele><time>2026-04-10T15:52:41.999Z</time></trkpt><trkpt lat="45.651837158916756" lon="13.881769734597645"><ele>415.0</ele><time>2026-04-10T15:52:46.999Z</time></trkpt><trkpt lat="45.651905745565024" lon="13.881726589439696"><ele>415.0</ele><time>2026-04-10T15:52:51.999Z</time></trkpt><trkpt lat="45.65197651894293" lon="13.881701083995065"><ele>415.0</ele><time>2026-04-10T15:52:56.999Z</time></trkpt><trkpt lat="45.65205434116253" lon="13.881685640445601"><ele>414.33333333333337</ele><time>2026-04-10T15:53:01.999Z</time></trkpt><trkpt lat="45.65213448857171" lon="13.881689652341061"><ele>413.6666666666667</ele><time>2026-04-10T15:53:06.999Z</time></trkpt><trkpt lat="45.65220962219871" lon="13.88169757270016"><ele>413.0</ele><time>2026-04-10T15:53:11.999Z</time></trkpt><trkpt lat="45.65228246155764" lon="13.881678111160612"><ele>412.33333333333337</ele><time>2026-04-10T15:53:16.999Z</time></trkpt><trkpt lat="45.65233646086831" lon="13.881599899534216"><ele>411.6666666666667</ele><time>2026-04-10T15:53:21.999Z</time></trkpt><trkpt lat="45.6523743729909" lon="13.881504486595134"><ele>411.0</ele><time>2026-04-10T15:53:26.999Z</time></trkpt><trkpt lat="45.65240824361108" lon="13.881406397467273"><ele>411.0</ele><time>2026-04-10T15:53:31.999Z</time></trkpt><trkpt lat="45.652435312641046" lon="13.881323988708399"><ele>411.0</ele><time>2026-04-10T15:53:35.999Z</time></trkpt><trkpt lat="45.65247363568719" lon="13.881226613016205"><ele>411.0</ele><time>2026-04-10T15:53:40.999Z</time></trkpt><trkpt lat="45.65251188238464" lon="13.881130445539505"><ele>411.0</ele><time>2026-04-10T15:53:46Z</time></trkpt><trkpt lat="45.65255218257619" lon="13.881038794576714"><ele>411.0</ele><time>2026-04-10T15:53:51Z</time></trkpt><trkpt lat="45.65257554826994" lon="13.880940962185738"><ele>411.0</ele><time>2026-04-10T15:53:56Z</time></trkpt><trkpt lat="45.6526105071102" lon="13.880843242803707"><ele>411.0</ele><time>2026-04-10T15:54:01Z</time></trkpt><trkpt lat="45.652638321336674" lon="13.880758865984003"><ele>410.57142857142856</ele><time>2026-04-10T15:54:05Z</time></trkpt><trkpt lat="45.65267815349825" lon="13.880665823714873"><ele>410.1428571428571</ele><time>2026-04-10T15:54:10Z</time></trkpt><trkpt lat="45.652724404258024" lon="13.880586901185607"><ele>409.7142857142857</ele><time>2026-04-10T15:54:15Z</time></trkpt><trkpt lat="45.65277937288338" lon="13.880521086992932"><ele>409.2857142857143</ele><time>2026-04-10T15:54:20Z</time></trkpt><trkpt lat="45.652846107590335" lon="13.88047148817195"><ele>408.8571428571429</ele><time>2026-04-10T15:54:25Z</time></trkpt><trkpt lat="45.65291568030224" lon="13.880431011956434"><ele>408.42857142857144</ele><time>2026-04-10T15:54:30Z</time></trkpt><trkpt lat="45.65298705516424" lon="13.880388312835063"><ele>408.0</ele><time>2026-04-10T15:54:35Z</time></trkpt><trkpt lat="45.653049342210544" lon="13.880331146528764"><ele>408.0</ele><time>2026-04-10T15:54:40Z</time></trkpt><trkpt lat="45.65311222625965" lon="13.880299327727135"><ele>408.0</ele><time>2026-04-10T15:54:44.999Z</time></trkpt><trkpt lat="45.65315910416477" lon="13.880225689141053"><ele>408.0</ele><time>2026-04-10T16:03:14Z</time></trkpt><trkpt lat="45.653189566451054" lon="13.880142091342817"><ele>408.0</ele><time>2026-04-10T16:03:18Z</time></trkpt><trkpt lat="45.65318833906916" lon="13.88003637199266"><ele>408.0</ele><time>2026-04-10T16:03:21Z</time></trkpt><trkpt lat="45.653121325871446" lon="13.879968672427335"><ele>408.0</ele><time>2026-04-10T16:03:22Z</time></trkpt><trkpt lat="45.653043049865964" lon="13.879920604572595"><ele>408.0</ele><time>2026-04-10T16:03:23Z</time></trkpt><trkpt lat="45.65296863669261" lon="13.87983978566873"><ele>407.79999999999995</ele><time>2026-04-10T16:03:24Z</time></trkpt><trkpt lat="45.65288106400503" lon="13.879779702845283"><ele>407.6</ele><time>2026-04-10T16:03:25Z</time></trkpt><trkpt lat="45.65279496977433" lon="13.879720634378591"><ele>407.4</ele><time>2026-04-10T16:03:26Z</time></trkpt><trkpt lat="45.6527127784605" lon="13.879662922033127"><ele>407.20000000000005</ele><time>2026-04-10T16:03:27Z</time></trkpt><trkpt lat="45.652633320004334" lon="13.879606396283853"><ele>407.0</ele><time>2026-04-10T16:03:28Z</time></trkpt><trkpt lat="45.652555741093266" lon="13.87954928883918"><ele>406.99999999999994</ele><time>2026-04-10T16:03:29Z</time></trkpt><trkpt lat="45.65247753916938" lon="13.879491011925493"><ele>407.0</ele><time>2026-04-10T16:03:30Z</time></trkpt><trkpt lat="45.65240010692284" lon="13.879432355556716"><ele>407.0</ele><time>2026-04-10T16:03:31Z</time></trkpt><trkpt lat="45.6523239216279" lon="13.879374284238356"><ele>407.0</ele><time>2026-04-10T16:03:32Z</time></trkpt><trkpt lat="45.652239625333486" lon="13.879343762564943"><ele>406.99999999999994</ele><time>2026-04-10T16:03:33Z</time></trkpt><trkpt lat="45.65216427347299" lon="13.87928815350496"><ele>407.0</ele><time>2026-04-10T16:03:34Z</time></trkpt><trkpt lat="45.652089204012725" lon="13.879233952872355"><ele>406.7142857142857</ele><time>2026-04-10T16:03:35Z</time></trkpt><trkpt lat="45.65201870894073" lon="13.879180640415186"><ele>406.42857142857144</ele><time>2026-04-10T16:03:36Z</time></trkpt><trkpt lat="45.65196278792394" lon="13.87910395063742"><ele>406.1428571428571</ele><time>2026-04-10T16:03:37Z</time></trkpt><trkpt lat="45.651901029733025" lon="13.879049081914163"><ele>405.8571428571429</ele><time>2026-04-10T16:03:38Z</time></trkpt><trkpt lat="45.651841921488625" lon="13.878995667673177"><ele>405.57142857142856</ele><time>2026-04-10T16:03:38.999Z</time></trkpt><trkpt lat="45.65178865512448" lon="13.878940506667323"><ele>405.2857142857143</ele><time>2026-04-10T16:03:39.999Z</time></trkpt><trkpt lat="45.65173556967093" lon="13.878883299263311"><ele>405.0</ele><time>2026-04-10T16:03:40.999Z</time></trkpt><trkpt lat="45.651653743683426" lon="13.878793559880917"><ele>404.8</ele><time>2026-04-10T16:03:42.999Z</time></trkpt><trkpt lat="45.65159564169106" lon="13.878729838803116"><ele>404.6</ele><time>2026-04-10T16:03:44.999Z</time></trkpt><trkpt lat="45.65150903876273" lon="13.878655911887488"><ele>404.4</ele><time>2026-04-10T16:03:46.999Z</time></trkpt><trkpt lat="45.65142510354272" lon="13.878530933757279"><ele>404.2</ele><time>2026-04-10T16:03:48.999Z</time></trkpt><trkpt lat="45.65137713666203" lon="13.878469451820918"><ele>404.0</ele><time>2026-04-10T16:03:49.999Z</time></trkpt><trkpt lat="45.65130130353469" lon="13.878357303666396"><ele>401.0</ele><time>2026-04-10T16:03:51.999Z</time></trkpt></trkseg></trk></gpx>